<?xml version="1.0" encoding="UTF-8" standalone="no" ?>
<gpx xmlns="http://www.topografix.com/GPX/1/1" xmlns:xsi="http://www.w3.org/2001/XMLSchema-instance" xsi:schemaLocation="http://www.topografix.com/GPX/1/1 http://www.topografix.com/GPX/1/1/gpx.xsd" version="1.1" creator="VisuGPX - https://www.visugpx.com">
  <metadata>
    <name>Le Bayard - Lhuis</name>
    <desc><![CDATA[Circuit au départ du Bayard vers Lhuis]]></desc>
  </metadata>
  <trk>
    <name><![CDATA[ACTIVE LOG123245]]></name>
    <trkseg>
      <trkpt lat="45.78723" lon="5.44343">
        <ele>205.206</ele>
        <time>2015-06-20T12:40:55Z</time>
      </trkpt>
      <trkpt lat="45.78702" lon="5.44356">
        <ele>204.235</ele>
        <time>2015-06-20T12:41:09Z</time>
      </trkpt>
      <trkpt lat="45.78687" lon="5.44379">
        <ele>202.917</ele>
        <time>2015-06-20T12:41:18Z</time>
      </trkpt>
      <trkpt lat="45.78687" lon="5.4439">
        <ele>201.482</ele>
        <time>2015-06-20T12:41:20Z</time>
      </trkpt>
      <trkpt lat="45.7869" lon="5.44412">
        <ele>200.095</ele>
        <time>2015-06-20T12:41:24Z</time>
      </trkpt>
      <trkpt lat="45.78691" lon="5.44442">
        <ele>196.877</ele>
        <time>2015-06-20T12:41:29Z</time>
      </trkpt>
      <trkpt lat="45.78674" lon="5.44481">
        <ele>193.473</ele>
        <time>2015-06-20T12:41:36Z</time>
      </trkpt>
      <trkpt lat="45.7867" lon="5.44488">
        <ele>193.473</ele>
        <time>2015-06-20T12:41:37Z</time>
      </trkpt>
      <trkpt lat="45.78646" lon="5.4453">
        <ele>190.543</ele>
        <time>2015-06-20T12:41:43Z</time>
      </trkpt>
      <trkpt lat="45.78625" lon="5.44556">
        <ele>190.728</ele>
        <time>2015-06-20T12:41:48Z</time>
      </trkpt>
      <trkpt lat="45.78611" lon="5.44568">
        <ele>190.25</ele>
        <time>2015-06-20T12:41:51Z</time>
      </trkpt>
      <trkpt lat="45.7858" lon="5.44587">
        <ele>193.547</ele>
        <time>2015-06-20T12:42:01Z</time>
      </trkpt>
      <trkpt lat="45.7857" lon="5.446">
        <ele>195.68</ele>
        <time>2015-06-20T12:42:07Z</time>
      </trkpt>
      <trkpt lat="45.78559" lon="5.44615">
        <ele>197.194</ele>
        <time>2015-06-20T12:42:17Z</time>
      </trkpt>
      <trkpt lat="45.78557" lon="5.44617">
        <ele>197.323</ele>
        <time>2015-06-20T12:42:19Z</time>
      </trkpt>
      <trkpt lat="45.78529" lon="5.44657">
        <ele>200.127</ele>
        <time>2015-06-20T12:42:37Z</time>
      </trkpt>
      <trkpt lat="45.78521" lon="5.44671">
        <ele>201.133</ele>
        <time>2015-06-20T12:42:54Z</time>
      </trkpt>
      <trkpt lat="45.78518" lon="5.44676">
        <ele>200.856</ele>
        <time>2015-06-20T12:44:03Z</time>
      </trkpt>
      <trkpt lat="45.78492" lon="5.44704">
        <ele>203.054</ele>
        <time>2015-06-20T12:44:17Z</time>
      </trkpt>
      <trkpt lat="45.78444" lon="5.4474">
        <ele>204.719</ele>
        <time>2015-06-20T12:44:33Z</time>
      </trkpt>
      <trkpt lat="45.78411" lon="5.44763">
        <ele>204.922</ele>
        <time>2015-06-20T12:44:46Z</time>
      </trkpt>
      <trkpt lat="45.78411" lon="5.44774">
        <ele>204.576</ele>
        <time>2015-06-20T12:45:13Z</time>
      </trkpt>
      <trkpt lat="45.78411" lon="5.44783">
        <ele>203.255</ele>
        <time>2015-06-20T12:45:15Z</time>
      </trkpt>
      <trkpt lat="45.78407" lon="5.44791">
        <ele>202.093</ele>
        <time>2015-06-20T12:45:17Z</time>
      </trkpt>
      <trkpt lat="45.78401" lon="5.44799">
        <ele>202.167</ele>
        <time>2015-06-20T12:45:19Z</time>
      </trkpt>
      <trkpt lat="45.78383" lon="5.44829">
        <ele>199.345</ele>
        <time>2015-06-20T12:45:24Z</time>
      </trkpt>
      <trkpt lat="45.78351" lon="5.4489">
        <ele>196.205</ele>
        <time>2015-06-20T12:45:32Z</time>
      </trkpt>
      <trkpt lat="45.78303" lon="5.44996">
        <ele>194.699</ele>
        <time>2015-06-20T12:45:47Z</time>
      </trkpt>
      <trkpt lat="45.78299" lon="5.45018">
        <ele>195.363</ele>
        <time>2015-06-20T12:45:56Z</time>
      </trkpt>
      <trkpt lat="45.78303" lon="5.4502">
        <ele>194.575</ele>
        <time>2015-06-20T12:45:59Z</time>
      </trkpt>
      <trkpt lat="45.78306" lon="5.45035">
        <ele>194.599</ele>
        <time>2015-06-20T12:46:06Z</time>
      </trkpt>
      <trkpt lat="45.783" lon="5.45045">
        <ele>194.11</ele>
        <time>2015-06-20T12:46:09Z</time>
      </trkpt>
      <trkpt lat="45.78284" lon="5.45059">
        <ele>197.122</ele>
        <time>2015-06-20T12:46:16Z</time>
      </trkpt>
      <trkpt lat="45.7828" lon="5.45062">
        <ele>196.966</ele>
        <time>2015-06-20T12:46:20Z</time>
      </trkpt>
      <trkpt lat="45.78283" lon="5.45067">
        <ele>197.091</ele>
        <time>2015-06-20T12:46:23Z</time>
      </trkpt>
      <trkpt lat="45.78284" lon="5.45071">
        <ele>197.114</ele>
        <time>2015-06-20T12:46:56Z</time>
      </trkpt>
      <trkpt lat="45.78279" lon="5.45075">
        <ele>197.025</ele>
        <time>2015-06-20T12:47:00Z</time>
      </trkpt>
      <trkpt lat="45.78274" lon="5.45083">
        <ele>198.282</ele>
        <time>2015-06-20T12:47:03Z</time>
      </trkpt>
      <trkpt lat="45.78267" lon="5.45087">
        <ele>198.953</ele>
        <time>2015-06-20T12:47:14Z</time>
      </trkpt>
      <trkpt lat="45.78262" lon="5.45091">
        <ele>199.323</ele>
        <time>2015-06-20T12:47:26Z</time>
      </trkpt>
      <trkpt lat="45.78263" lon="5.45094">
        <ele>199.556</ele>
        <time>2015-06-20T12:47:39Z</time>
      </trkpt>
      <trkpt lat="45.78278" lon="5.45098">
        <ele>199.395</ele>
        <time>2015-06-20T12:48:21Z</time>
      </trkpt>
      <trkpt lat="45.78327" lon="5.45135">
        <ele>202.193</ele>
        <time>2015-06-20T12:48:36Z</time>
      </trkpt>
      <trkpt lat="45.78378" lon="5.45171">
        <ele>203.371</ele>
        <time>2015-06-20T12:48:50Z</time>
      </trkpt>
      <trkpt lat="45.78386" lon="5.45176">
        <ele>200.779</ele>
        <time>2015-06-20T12:48:52Z</time>
      </trkpt>
      <trkpt lat="45.78426" lon="5.45201">
        <ele>197.981</ele>
        <time>2015-06-20T12:49:00Z</time>
      </trkpt>
      <trkpt lat="45.7846" lon="5.45227">
        <ele>197.294</ele>
        <time>2015-06-20T12:49:06Z</time>
      </trkpt>
      <trkpt lat="45.78494" lon="5.4525">
        <ele>195.672</ele>
        <time>2015-06-20T12:49:13Z</time>
      </trkpt>
      <trkpt lat="45.78512" lon="5.45266">
        <ele>194.813</ele>
        <time>2015-06-20T12:49:21Z</time>
      </trkpt>
      <trkpt lat="45.78509" lon="5.45274">
        <ele>194.351</ele>
        <time>2015-06-20T12:49:25Z</time>
      </trkpt>
      <trkpt lat="45.78506" lon="5.45266">
        <ele>194.662</ele>
        <time>2015-06-20T12:49:30Z</time>
      </trkpt>
      <trkpt lat="45.78503" lon="5.45264">
        <ele>195.178</ele>
        <time>2015-06-20T12:49:32Z</time>
      </trkpt>
      <trkpt lat="45.7846" lon="5.45239">
        <ele>193.841</ele>
        <time>2015-06-20T12:49:45Z</time>
      </trkpt>
      <trkpt lat="45.78416" lon="5.45207">
        <ele>193</ele>
        <time>2015-06-20T12:49:57Z</time>
      </trkpt>
      <trkpt lat="45.78402" lon="5.45216">
        <ele>193.27</ele>
        <time>2015-06-20T12:50:02Z</time>
      </trkpt>
      <trkpt lat="45.784" lon="5.45223">
        <ele>193.687</ele>
        <time>2015-06-20T12:50:04Z</time>
      </trkpt>
      <trkpt lat="45.78392" lon="5.45241">
        <ele>193.584</ele>
        <time>2015-06-20T12:50:08Z</time>
      </trkpt>
      <trkpt lat="45.78387" lon="5.45258">
        <ele>192.889</ele>
        <time>2015-06-20T12:50:11Z</time>
      </trkpt>
      <trkpt lat="45.78339" lon="5.45374">
        <ele>192.11</ele>
        <time>2015-06-20T12:50:28Z</time>
      </trkpt>
      <trkpt lat="45.78296" lon="5.4554">
        <ele>191.661</ele>
        <time>2015-06-20T12:50:46Z</time>
      </trkpt>
      <trkpt lat="45.78272" lon="5.4562">
        <ele>192.947</ele>
        <time>2015-06-20T12:50:55Z</time>
      </trkpt>
      <trkpt lat="45.7825" lon="5.45672">
        <ele>193.759</ele>
        <time>2015-06-20T12:51:05Z</time>
      </trkpt>
      <trkpt lat="45.78244" lon="5.45686">
        <ele>193.727</ele>
        <time>2015-06-20T12:51:09Z</time>
      </trkpt>
      <trkpt lat="45.78245" lon="5.45693">
        <ele>193.531</ele>
        <time>2015-06-20T12:51:13Z</time>
      </trkpt>
      <trkpt lat="45.78239" lon="5.45706">
        <ele>193.888</ele>
        <time>2015-06-20T12:51:28Z</time>
      </trkpt>
      <trkpt lat="45.78232" lon="5.45716">
        <ele>193.949</ele>
        <time>2015-06-20T12:51:32Z</time>
      </trkpt>
      <trkpt lat="45.78227" lon="5.45729">
        <ele>193.648</ele>
        <time>2015-06-20T12:51:45Z</time>
      </trkpt>
      <trkpt lat="45.78219" lon="5.45761">
        <ele>194.205</ele>
        <time>2015-06-20T12:52:02Z</time>
      </trkpt>
      <trkpt lat="45.7818" lon="5.45834">
        <ele>193.325</ele>
        <time>2015-06-20T12:52:16Z</time>
      </trkpt>
      <trkpt lat="45.78136" lon="5.45909">
        <ele>193.563</ele>
        <time>2015-06-20T12:52:31Z</time>
      </trkpt>
      <trkpt lat="45.78102" lon="5.4597">
        <ele>193.872</ele>
        <time>2015-06-20T12:52:44Z</time>
      </trkpt>
      <trkpt lat="45.78099" lon="5.45975">
        <ele>193.88</ele>
        <time>2015-06-20T12:52:45Z</time>
      </trkpt>
      <trkpt lat="45.78084" lon="5.46">
        <ele>193.323</ele>
        <time>2015-06-20T12:52:51Z</time>
      </trkpt>
      <trkpt lat="45.7809" lon="5.46009">
        <ele>193.354</ele>
        <time>2015-06-20T12:52:55Z</time>
      </trkpt>
      <trkpt lat="45.78097" lon="5.46017">
        <ele>192.799</ele>
        <time>2015-06-20T12:53:08Z</time>
      </trkpt>
      <trkpt lat="45.78099" lon="5.46021">
        <ele>192.456</ele>
        <time>2015-06-20T12:53:39Z</time>
      </trkpt>
      <trkpt lat="45.78103" lon="5.46024">
        <ele>193.579</ele>
        <time>2015-06-20T12:55:49Z</time>
      </trkpt>
      <trkpt lat="45.78111" lon="5.46024">
        <ele>193.109</ele>
        <time>2015-06-20T12:55:55Z</time>
      </trkpt>
      <trkpt lat="45.7816" lon="5.46066">
        <ele>193.917</ele>
        <time>2015-06-20T12:56:14Z</time>
      </trkpt>
      <trkpt lat="45.78194" lon="5.46083">
        <ele>192.678</ele>
        <time>2015-06-20T12:56:26Z</time>
      </trkpt>
      <trkpt lat="45.78231" lon="5.46096">
        <ele>192.924</ele>
        <time>2015-06-20T12:56:36Z</time>
      </trkpt>
      <trkpt lat="45.78262" lon="5.4608">
        <ele>193.114</ele>
        <time>2015-06-20T12:56:44Z</time>
      </trkpt>
      <trkpt lat="45.78293" lon="5.46043">
        <ele>192.477</ele>
        <time>2015-06-20T12:56:53Z</time>
      </trkpt>
      <trkpt lat="45.7831" lon="5.46013">
        <ele>192.992</ele>
        <time>2015-06-20T12:56:59Z</time>
      </trkpt>
      <trkpt lat="45.78348" lon="5.45957">
        <ele>193.848</ele>
        <time>2015-06-20T12:57:12Z</time>
      </trkpt>
      <trkpt lat="45.7837" lon="5.45952">
        <ele>192.852</ele>
        <time>2015-06-20T12:57:17Z</time>
      </trkpt>
      <trkpt lat="45.78378" lon="5.45957">
        <ele>194.358</ele>
        <time>2015-06-20T12:57:19Z</time>
      </trkpt>
      <trkpt lat="45.78413" lon="5.45973">
        <ele>193.949</ele>
        <time>2015-06-20T12:57:26Z</time>
      </trkpt>
      <trkpt lat="45.78466" lon="5.46028">
        <ele>193.55</ele>
        <time>2015-06-20T12:57:38Z</time>
      </trkpt>
      <trkpt lat="45.78486" lon="5.46038">
        <ele>195.254</ele>
        <time>2015-06-20T12:57:42Z</time>
      </trkpt>
      <trkpt lat="45.78573" lon="5.46052">
        <ele>195.4</ele>
        <time>2015-06-20T12:57:59Z</time>
      </trkpt>
      <trkpt lat="45.78599" lon="5.46058">
        <ele>196.134</ele>
        <time>2015-06-20T12:58:08Z</time>
      </trkpt>
      <trkpt lat="45.78604" lon="5.46099">
        <ele>196.713</ele>
        <time>2015-06-20T12:58:19Z</time>
      </trkpt>
      <trkpt lat="45.78596" lon="5.46159">
        <ele>196.398</ele>
        <time>2015-06-20T12:58:31Z</time>
      </trkpt>
      <trkpt lat="45.78598" lon="5.46228">
        <ele>196.462</ele>
        <time>2015-06-20T12:58:42Z</time>
      </trkpt>
      <trkpt lat="45.78612" lon="5.46342">
        <ele>196.752</ele>
        <time>2015-06-20T12:59:02Z</time>
      </trkpt>
      <trkpt lat="45.78612" lon="5.46407">
        <ele>198.251</ele>
        <time>2015-06-20T12:59:18Z</time>
      </trkpt>
      <trkpt lat="45.78612" lon="5.4641">
        <ele>198.171</ele>
        <time>2015-06-20T12:59:36Z</time>
      </trkpt>
      <trkpt lat="45.78608" lon="5.46439">
        <ele>198.65</ele>
        <time>2015-06-20T12:59:48Z</time>
      </trkpt>
      <trkpt lat="45.78597" lon="5.46482">
        <ele>200.682</ele>
        <time>2015-06-20T13:00:00Z</time>
      </trkpt>
      <trkpt lat="45.78573" lon="5.46515">
        <ele>202.455</ele>
        <time>2015-06-20T13:00:12Z</time>
      </trkpt>
      <trkpt lat="45.78559" lon="5.46538">
        <ele>205.2</ele>
        <time>2015-06-20T13:00:20Z</time>
      </trkpt>
      <trkpt lat="45.78541" lon="5.46578">
        <ele>207.781</ele>
        <time>2015-06-20T13:00:29Z</time>
      </trkpt>
      <trkpt lat="45.78539" lon="5.46607">
        <ele>208.836</ele>
        <time>2015-06-20T13:00:35Z</time>
      </trkpt>
      <trkpt lat="45.78548" lon="5.46612">
        <ele>208.756</ele>
        <time>2015-06-20T13:00:44Z</time>
      </trkpt>
      <trkpt lat="45.78572" lon="5.4659">
        <ele>208.54</ele>
        <time>2015-06-20T13:01:26Z</time>
      </trkpt>
      <trkpt lat="45.78618" lon="5.46552">
        <ele>207.705</ele>
        <time>2015-06-20T13:01:41Z</time>
      </trkpt>
      <trkpt lat="45.78668" lon="5.46503">
        <ele>207.871</ele>
        <time>2015-06-20T13:01:58Z</time>
      </trkpt>
      <trkpt lat="45.78709" lon="5.46466">
        <ele>208.466</ele>
        <time>2015-06-20T13:02:13Z</time>
      </trkpt>
      <trkpt lat="45.78734" lon="5.4644">
        <ele>207.269</ele>
        <time>2015-06-20T13:02:23Z</time>
      </trkpt>
      <trkpt lat="45.78741" lon="5.46446">
        <ele>210.006</ele>
        <time>2015-06-20T13:02:27Z</time>
      </trkpt>
      <trkpt lat="45.78739" lon="5.46452">
        <ele>210.683</ele>
        <time>2015-06-20T13:02:29Z</time>
      </trkpt>
      <trkpt lat="45.78719" lon="5.46477">
        <ele>213.41</ele>
        <time>2015-06-20T13:02:43Z</time>
      </trkpt>
      <trkpt lat="45.78696" lon="5.46505">
        <ele>214.345</ele>
        <time>2015-06-20T13:02:57Z</time>
      </trkpt>
      <trkpt lat="45.7869" lon="5.46512">
        <ele>214.876</ele>
        <time>2015-06-20T13:03:01Z</time>
      </trkpt>
      <trkpt lat="45.78662" lon="5.46544">
        <ele>216.06</ele>
        <time>2015-06-20T13:03:17Z</time>
      </trkpt>
      <trkpt lat="45.78635" lon="5.46574">
        <ele>217.516</ele>
        <time>2015-06-20T13:03:29Z</time>
      </trkpt>
      <trkpt lat="45.7861" lon="5.46605">
        <ele>219.212</ele>
        <time>2015-06-20T13:03:42Z</time>
      </trkpt>
      <trkpt lat="45.78585" lon="5.46632">
        <ele>220.837</ele>
        <time>2015-06-20T13:03:58Z</time>
      </trkpt>
      <trkpt lat="45.78565" lon="5.46654">
        <ele>223.511</ele>
        <time>2015-06-20T13:04:11Z</time>
      </trkpt>
      <trkpt lat="45.78544" lon="5.4669">
        <ele>225.522</ele>
        <time>2015-06-20T13:04:26Z</time>
      </trkpt>
      <trkpt lat="45.7852" lon="5.46736">
        <ele>228.299</ele>
        <time>2015-06-20T13:04:41Z</time>
      </trkpt>
      <trkpt lat="45.78499" lon="5.4677">
        <ele>229.131</ele>
        <time>2015-06-20T13:04:53Z</time>
      </trkpt>
      <trkpt lat="45.78475" lon="5.46803">
        <ele>232.014</ele>
        <time>2015-06-20T13:05:07Z</time>
      </trkpt>
      <trkpt lat="45.78459" lon="5.46836">
        <ele>233.761</ele>
        <time>2015-06-20T13:05:20Z</time>
      </trkpt>
      <trkpt lat="45.78448" lon="5.4686">
        <ele>235.737</ele>
        <time>2015-06-20T13:05:31Z</time>
      </trkpt>
      <trkpt lat="45.7843" lon="5.46895">
        <ele>238.401</ele>
        <time>2015-06-20T13:05:45Z</time>
      </trkpt>
      <trkpt lat="45.78414" lon="5.46939">
        <ele>241.63</ele>
        <time>2015-06-20T13:06:01Z</time>
      </trkpt>
      <trkpt lat="45.78399" lon="5.46982">
        <ele>245.144</ele>
        <time>2015-06-20T13:06:17Z</time>
      </trkpt>
      <trkpt lat="45.78389" lon="5.47021">
        <ele>248.589</ele>
        <time>2015-06-20T13:06:33Z</time>
      </trkpt>
      <trkpt lat="45.78373" lon="5.47069">
        <ele>250.328</ele>
        <time>2015-06-20T13:06:50Z</time>
      </trkpt>
      <trkpt lat="45.78357" lon="5.4711">
        <ele>252.307</ele>
        <time>2015-06-20T13:07:06Z</time>
      </trkpt>
      <trkpt lat="45.78322" lon="5.47166">
        <ele>253.605</ele>
        <time>2015-06-20T13:07:26Z</time>
      </trkpt>
      <trkpt lat="45.78289" lon="5.4721">
        <ele>255.208</ele>
        <time>2015-06-20T13:07:44Z</time>
      </trkpt>
      <trkpt lat="45.78269" lon="5.47243">
        <ele>257.063</ele>
        <time>2015-06-20T13:07:57Z</time>
      </trkpt>
      <trkpt lat="45.78261" lon="5.47256">
        <ele>258.202</ele>
        <time>2015-06-20T13:08:03Z</time>
      </trkpt>
      <trkpt lat="45.78233" lon="5.47292">
        <ele>259.679</ele>
        <time>2015-06-20T13:08:16Z</time>
      </trkpt>
      <trkpt lat="45.78202" lon="5.47328">
        <ele>263.334</ele>
        <time>2015-06-20T13:08:32Z</time>
      </trkpt>
      <trkpt lat="45.78176" lon="5.47348">
        <ele>263.162</ele>
        <time>2015-06-20T13:08:43Z</time>
      </trkpt>
      <trkpt lat="45.7814" lon="5.47369">
        <ele>264.227</ele>
        <time>2015-06-20T13:08:56Z</time>
      </trkpt>
      <trkpt lat="45.78086" lon="5.4741">
        <ele>262.641</ele>
        <time>2015-06-20T13:09:12Z</time>
      </trkpt>
      <trkpt lat="45.78038" lon="5.47441">
        <ele>260.797</ele>
        <time>2015-06-20T13:09:25Z</time>
      </trkpt>
      <trkpt lat="45.78027" lon="5.47447">
        <ele>259.856</ele>
        <time>2015-06-20T13:09:34Z</time>
      </trkpt>
      <trkpt lat="45.77986" lon="5.47472">
        <ele>262.031</ele>
        <time>2015-06-20T13:13:23Z</time>
      </trkpt>
      <trkpt lat="45.77934" lon="5.47502">
        <ele>263.482</ele>
        <time>2015-06-20T13:13:41Z</time>
      </trkpt>
      <trkpt lat="45.77901" lon="5.47521">
        <ele>264.721</ele>
        <time>2015-06-20T13:13:53Z</time>
      </trkpt>
      <trkpt lat="45.77856" lon="5.47548">
        <ele>266.697</ele>
        <time>2015-06-20T13:14:08Z</time>
      </trkpt>
      <trkpt lat="45.7782" lon="5.47573">
        <ele>266.745</ele>
        <time>2015-06-20T13:14:20Z</time>
      </trkpt>
      <trkpt lat="45.77795" lon="5.47608">
        <ele>263.968</ele>
        <time>2015-06-20T13:14:27Z</time>
      </trkpt>
      <trkpt lat="45.77775" lon="5.47633">
        <ele>260.963</ele>
        <time>2015-06-20T13:14:31Z</time>
      </trkpt>
      <trkpt lat="45.77769" lon="5.47639">
        <ele>260.963</ele>
        <time>2015-06-20T13:14:32Z</time>
      </trkpt>
      <trkpt lat="45.77732" lon="5.47694">
        <ele>259.859</ele>
        <time>2015-06-20T13:14:42Z</time>
      </trkpt>
      <trkpt lat="45.77715" lon="5.47724">
        <ele>258.76</ele>
        <time>2015-06-20T13:14:54Z</time>
      </trkpt>
      <trkpt lat="45.77715" lon="5.47733">
        <ele>258.894</ele>
        <time>2015-06-20T13:16:22Z</time>
      </trkpt>
      <trkpt lat="45.77719" lon="5.47799">
        <ele>257.063</ele>
        <time>2015-06-20T13:16:34Z</time>
      </trkpt>
      <trkpt lat="45.77723" lon="5.47814">
        <ele>255.771</ele>
        <time>2015-06-20T13:16:36Z</time>
      </trkpt>
      <trkpt lat="45.77773" lon="5.47955">
        <ele>252.817</ele>
        <time>2015-06-20T13:16:56Z</time>
      </trkpt>
      <trkpt lat="45.77811" lon="5.48069">
        <ele>254.802</ele>
        <time>2015-06-20T13:17:15Z</time>
      </trkpt>
      <trkpt lat="45.77802" lon="5.48083">
        <ele>254.68</ele>
        <time>2015-06-20T13:17:19Z</time>
      </trkpt>
      <trkpt lat="45.77736" lon="5.48147">
        <ele>254.527</ele>
        <time>2015-06-20T13:17:37Z</time>
      </trkpt>
      <trkpt lat="45.77691" lon="5.48208">
        <ele>254.683</ele>
        <time>2015-06-20T13:17:53Z</time>
      </trkpt>
      <trkpt lat="45.77664" lon="5.48254">
        <ele>254.767</ele>
        <time>2015-06-20T13:18:06Z</time>
      </trkpt>
      <trkpt lat="45.77646" lon="5.48288">
        <ele>254.344</ele>
        <time>2015-06-20T13:18:14Z</time>
      </trkpt>
      <trkpt lat="45.7761" lon="5.48337">
        <ele>254.36</ele>
        <time>2015-06-20T13:18:26Z</time>
      </trkpt>
      <trkpt lat="45.776" lon="5.48374">
        <ele>254.86</ele>
        <time>2015-06-20T13:18:36Z</time>
      </trkpt>
      <trkpt lat="45.77583" lon="5.48415">
        <ele>254.154</ele>
        <time>2015-06-20T13:18:48Z</time>
      </trkpt>
      <trkpt lat="45.77561" lon="5.48451">
        <ele>254.085</ele>
        <time>2015-06-20T13:18:58Z</time>
      </trkpt>
      <trkpt lat="45.77528" lon="5.485">
        <ele>255.28</ele>
        <time>2015-06-20T13:19:10Z</time>
      </trkpt>
      <trkpt lat="45.77506" lon="5.4852">
        <ele>255.018</ele>
        <time>2015-06-20T13:19:19Z</time>
      </trkpt>
      <trkpt lat="45.77496" lon="5.48539">
        <ele>255.478</ele>
        <time>2015-06-20T13:19:25Z</time>
      </trkpt>
      <trkpt lat="45.77483" lon="5.48567">
        <ele>257.65</ele>
        <time>2015-06-20T13:19:33Z</time>
      </trkpt>
      <trkpt lat="45.77478" lon="5.48574">
        <ele>258.131</ele>
        <time>2015-06-20T13:19:37Z</time>
      </trkpt>
      <trkpt lat="45.77469" lon="5.4858">
        <ele>257.935</ele>
        <time>2015-06-20T13:19:56Z</time>
      </trkpt>
      <trkpt lat="45.77449" lon="5.48584">
        <ele>258.466</ele>
        <time>2015-06-20T13:20:53Z</time>
      </trkpt>
      <trkpt lat="45.77409" lon="5.48591">
        <ele>259.33</ele>
        <time>2015-06-20T13:21:06Z</time>
      </trkpt>
      <trkpt lat="45.77383" lon="5.48605">
        <ele>258.704</ele>
        <time>2015-06-20T13:21:14Z</time>
      </trkpt>
      <trkpt lat="45.77323" lon="5.48646">
        <ele>258.363</ele>
        <time>2015-06-20T13:21:23Z</time>
      </trkpt>
      <trkpt lat="45.77265" lon="5.487">
        <ele>259.072</ele>
        <time>2015-06-20T13:21:37Z</time>
      </trkpt>
      <trkpt lat="45.77235" lon="5.48749">
        <ele>259.428</ele>
        <time>2015-06-20T13:21:49Z</time>
      </trkpt>
      <trkpt lat="45.77216" lon="5.48789">
        <ele>259.928</ele>
        <time>2015-06-20T13:22:01Z</time>
      </trkpt>
      <trkpt lat="45.77203" lon="5.48811">
        <ele>258.667</ele>
        <time>2015-06-20T13:22:06Z</time>
      </trkpt>
      <trkpt lat="45.77188" lon="5.48827">
        <ele>258.778</ele>
        <time>2015-06-20T13:22:08Z</time>
      </trkpt>
      <trkpt lat="45.77169" lon="5.48856">
        <ele>258.76</ele>
        <time>2015-06-20T13:22:16Z</time>
      </trkpt>
      <trkpt lat="45.77162" lon="5.48867">
        <ele>258.783</ele>
        <time>2015-06-20T13:22:19Z</time>
      </trkpt>
      <trkpt lat="45.77137" lon="5.48908">
        <ele>259.143</ele>
        <time>2015-06-20T13:22:31Z</time>
      </trkpt>
      <trkpt lat="45.77113" lon="5.48939">
        <ele>259.832</ele>
        <time>2015-06-20T13:22:40Z</time>
      </trkpt>
      <trkpt lat="45.77099" lon="5.48963">
        <ele>259.917</ele>
        <time>2015-06-20T13:22:49Z</time>
      </trkpt>
      <trkpt lat="45.77049" lon="5.49015">
        <ele>260.062</ele>
        <time>2015-06-20T13:23:01Z</time>
      </trkpt>
      <trkpt lat="45.77021" lon="5.49042">
        <ele>259.455</ele>
        <time>2015-06-20T13:23:09Z</time>
      </trkpt>
      <trkpt lat="45.7699" lon="5.49077">
        <ele>259.748</ele>
        <time>2015-06-20T13:23:20Z</time>
      </trkpt>
      <trkpt lat="45.76967" lon="5.49103">
        <ele>261.656</ele>
        <time>2015-06-20T13:23:29Z</time>
      </trkpt>
      <trkpt lat="45.76941" lon="5.49094">
        <ele>261.994</ele>
        <time>2015-06-20T13:23:38Z</time>
      </trkpt>
      <trkpt lat="45.76921" lon="5.4909">
        <ele>262.285</ele>
        <time>2015-06-20T13:23:47Z</time>
      </trkpt>
      <trkpt lat="45.76893" lon="5.49094">
        <ele>263.241</ele>
        <time>2015-06-20T13:23:58Z</time>
      </trkpt>
      <trkpt lat="45.76885" lon="5.49099">
        <ele>262.781</ele>
        <time>2015-06-20T13:24:02Z</time>
      </trkpt>
      <trkpt lat="45.76849" lon="5.49139">
        <ele>262.57</ele>
        <time>2015-06-20T13:24:16Z</time>
      </trkpt>
      <trkpt lat="45.76815" lon="5.4917">
        <ele>263.664</ele>
        <time>2015-06-20T13:24:33Z</time>
      </trkpt>
      <trkpt lat="45.7678" lon="5.49198">
        <ele>264.61</ele>
        <time>2015-06-20T13:24:46Z</time>
      </trkpt>
      <trkpt lat="45.76746" lon="5.49228">
        <ele>264.805</ele>
        <time>2015-06-20T13:25:00Z</time>
      </trkpt>
      <trkpt lat="45.76719" lon="5.49258">
        <ele>265.297</ele>
        <time>2015-06-20T13:25:12Z</time>
      </trkpt>
      <trkpt lat="45.76685" lon="5.49294">
        <ele>265.416</ele>
        <time>2015-06-20T13:25:24Z</time>
      </trkpt>
      <trkpt lat="45.76654" lon="5.4933">
        <ele>264.813</ele>
        <time>2015-06-20T13:25:37Z</time>
      </trkpt>
      <trkpt lat="45.76619" lon="5.49371">
        <ele>264.842</ele>
        <time>2015-06-20T13:25:50Z</time>
      </trkpt>
      <trkpt lat="45.76598" lon="5.49391">
        <ele>264.8</ele>
        <time>2015-06-20T13:25:56Z</time>
      </trkpt>
      <trkpt lat="45.76562" lon="5.49437">
        <ele>264.853</ele>
        <time>2015-06-20T13:26:12Z</time>
      </trkpt>
      <trkpt lat="45.76549" lon="5.49451">
        <ele>265.339</ele>
        <time>2015-06-20T13:26:18Z</time>
      </trkpt>
      <trkpt lat="45.76507" lon="5.49504">
        <ele>265.35</ele>
        <time>2015-06-20T13:26:34Z</time>
      </trkpt>
      <trkpt lat="45.76486" lon="5.49549">
        <ele>265.751</ele>
        <time>2015-06-20T13:26:46Z</time>
      </trkpt>
      <trkpt lat="45.76474" lon="5.49571">
        <ele>266.013</ele>
        <time>2015-06-20T13:26:54Z</time>
      </trkpt>
      <trkpt lat="45.76454" lon="5.49603">
        <ele>267.413</ele>
        <time>2015-06-20T13:27:08Z</time>
      </trkpt>
      <trkpt lat="45.76426" lon="5.4964">
        <ele>268.851</ele>
        <time>2015-06-20T13:27:21Z</time>
      </trkpt>
      <trkpt lat="45.76403" lon="5.49692">
        <ele>269.995</ele>
        <time>2015-06-20T13:27:36Z</time>
      </trkpt>
      <trkpt lat="45.76378" lon="5.49743">
        <ele>271.015</ele>
        <time>2015-06-20T13:27:53Z</time>
      </trkpt>
      <trkpt lat="45.76353" lon="5.49786">
        <ele>272.045</ele>
        <time>2015-06-20T13:28:06Z</time>
      </trkpt>
      <trkpt lat="45.76346" lon="5.49802">
        <ele>272.418</ele>
        <time>2015-06-20T13:28:12Z</time>
      </trkpt>
      <trkpt lat="45.76339" lon="5.49812">
        <ele>273.15</ele>
        <time>2015-06-20T13:28:16Z</time>
      </trkpt>
      <trkpt lat="45.76316" lon="5.49851">
        <ele>274.952</ele>
        <time>2015-06-20T13:28:31Z</time>
      </trkpt>
      <trkpt lat="45.76296" lon="5.4989">
        <ele>276.437</ele>
        <time>2015-06-20T13:28:44Z</time>
      </trkpt>
      <trkpt lat="45.76272" lon="5.49924">
        <ele>279.317</ele>
        <time>2015-06-20T13:28:57Z</time>
      </trkpt>
      <trkpt lat="45.76249" lon="5.49959">
        <ele>281.801</ele>
        <time>2015-06-20T13:29:10Z</time>
      </trkpt>
      <trkpt lat="45.76236" lon="5.49993">
        <ele>282.57</ele>
        <time>2015-06-20T13:29:23Z</time>
      </trkpt>
      <trkpt lat="45.76216" lon="5.50031">
        <ele>285.26</ele>
        <time>2015-06-20T13:29:37Z</time>
      </trkpt>
      <trkpt lat="45.76207" lon="5.50052">
        <ele>286.224</ele>
        <time>2015-06-20T13:29:44Z</time>
      </trkpt>
      <trkpt lat="45.76204" lon="5.50056">
        <ele>286.929</ele>
        <time>2015-06-20T13:29:47Z</time>
      </trkpt>
      <trkpt lat="45.76191" lon="5.50071">
        <ele>288.013</ele>
        <time>2015-06-20T13:29:58Z</time>
      </trkpt>
      <trkpt lat="45.76191" lon="5.50079">
        <ele>290.378</ele>
        <time>2015-06-20T13:30:05Z</time>
      </trkpt>
      <trkpt lat="45.76189" lon="5.50086">
        <ele>291.445</ele>
        <time>2015-06-20T13:30:09Z</time>
      </trkpt>
      <trkpt lat="45.7616" lon="5.50122">
        <ele>293.689</ele>
        <time>2015-06-20T13:30:22Z</time>
      </trkpt>
      <trkpt lat="45.76128" lon="5.50166">
        <ele>295.739</ele>
        <time>2015-06-20T13:30:34Z</time>
      </trkpt>
      <trkpt lat="45.76112" lon="5.50202">
        <ele>298.027</ele>
        <time>2015-06-20T13:30:49Z</time>
      </trkpt>
      <trkpt lat="45.76098" lon="5.50226">
        <ele>301.108</ele>
        <time>2015-06-20T13:31:01Z</time>
      </trkpt>
      <trkpt lat="45.76103" lon="5.50231">
        <ele>302.096</ele>
        <time>2015-06-20T13:31:07Z</time>
      </trkpt>
      <trkpt lat="45.76102" lon="5.50235">
        <ele>303.444</ele>
        <time>2015-06-20T13:31:10Z</time>
      </trkpt>
      <trkpt lat="45.76102" lon="5.50238">
        <ele>303.592</ele>
        <time>2015-06-20T13:31:11Z</time>
      </trkpt>
      <trkpt lat="45.76102" lon="5.50245">
        <ele>304.723</ele>
        <time>2015-06-20T13:31:16Z</time>
      </trkpt>
      <trkpt lat="45.76103" lon="5.50249">
        <ele>305.714</ele>
        <time>2015-06-20T13:31:18Z</time>
      </trkpt>
      <trkpt lat="45.76099" lon="5.50255">
        <ele>307.114</ele>
        <time>2015-06-20T13:31:23Z</time>
      </trkpt>
      <trkpt lat="45.76099" lon="5.5027">
        <ele>310.037</ele>
        <time>2015-06-20T13:31:34Z</time>
      </trkpt>
      <trkpt lat="45.76072" lon="5.50293">
        <ele>311.305</ele>
        <time>2015-06-20T13:31:42Z</time>
      </trkpt>
      <trkpt lat="45.76059" lon="5.50309">
        <ele>311.746</ele>
        <time>2015-06-20T13:31:49Z</time>
      </trkpt>
      <trkpt lat="45.7605" lon="5.5034">
        <ele>314.515</ele>
        <time>2015-06-20T13:32:03Z</time>
      </trkpt>
      <trkpt lat="45.76032" lon="5.50361">
        <ele>317.216</ele>
        <time>2015-06-20T13:32:14Z</time>
      </trkpt>
      <trkpt lat="45.76011" lon="5.5039">
        <ele>318.326</ele>
        <time>2015-06-20T13:32:29Z</time>
      </trkpt>
      <trkpt lat="45.75995" lon="5.50418">
        <ele>318.711</ele>
        <time>2015-06-20T13:32:43Z</time>
      </trkpt>
      <trkpt lat="45.75979" lon="5.50428">
        <ele>317.874</ele>
        <time>2015-06-20T13:34:57Z</time>
      </trkpt>
      <trkpt lat="45.7598" lon="5.50439">
        <ele>318.577</ele>
        <time>2015-06-20T13:46:56Z</time>
      </trkpt>
      <trkpt lat="45.7595" lon="5.5043">
        <ele>318.817</ele>
        <time>2015-06-20T13:48:56Z</time>
      </trkpt>
      <trkpt lat="45.75944" lon="5.50437">
        <ele>316.978</ele>
        <time>2015-06-20T13:49:18Z</time>
      </trkpt>
      <trkpt lat="45.75933" lon="5.50457">
        <ele>315.918</ele>
        <time>2015-06-20T13:49:24Z</time>
      </trkpt>
      <trkpt lat="45.75928" lon="5.50475">
        <ele>315.517</ele>
        <time>2015-06-20T13:49:27Z</time>
      </trkpt>
      <trkpt lat="45.75882" lon="5.50572">
        <ele>312.724</ele>
        <time>2015-06-20T13:49:43Z</time>
      </trkpt>
      <trkpt lat="45.7587" lon="5.50604">
        <ele>315.815</ele>
        <time>2015-06-20T13:49:52Z</time>
      </trkpt>
      <trkpt lat="45.75871" lon="5.50608">
        <ele>315.815</ele>
        <time>2015-06-20T13:49:53Z</time>
      </trkpt>
      <trkpt lat="45.75866" lon="5.5062">
        <ele>316.494</ele>
        <time>2015-06-20T13:49:57Z</time>
      </trkpt>
      <trkpt lat="45.75853" lon="5.50621">
        <ele>317.805</ele>
        <time>2015-06-20T13:49:59Z</time>
      </trkpt>
      <trkpt lat="45.75823" lon="5.50659">
        <ele>319.308</ele>
        <time>2015-06-20T13:50:13Z</time>
      </trkpt>
      <trkpt lat="45.75781" lon="5.50681">
        <ele>320.503</ele>
        <time>2015-06-20T13:50:24Z</time>
      </trkpt>
      <trkpt lat="45.75756" lon="5.50689">
        <ele>320.519</ele>
        <time>2015-06-20T13:50:37Z</time>
      </trkpt>
      <trkpt lat="45.75731" lon="5.5069">
        <ele>319.05</ele>
        <time>2015-06-20T13:50:59Z</time>
      </trkpt>
      <trkpt lat="45.75716" lon="5.50684">
        <ele>321.142</ele>
        <time>2015-06-20T13:51:05Z</time>
      </trkpt>
      <trkpt lat="45.75691" lon="5.50681">
        <ele>324.844</ele>
        <time>2015-06-20T13:51:13Z</time>
      </trkpt>
      <trkpt lat="45.75683" lon="5.50678">
        <ele>325.743</ele>
        <time>2015-06-20T13:51:17Z</time>
      </trkpt>
      <trkpt lat="45.75656" lon="5.50659">
        <ele>328.744</ele>
        <time>2015-06-20T13:51:33Z</time>
      </trkpt>
      <trkpt lat="45.75634" lon="5.50644">
        <ele>329.059</ele>
        <time>2015-06-20T13:51:47Z</time>
      </trkpt>
      <trkpt lat="45.7563" lon="5.50636">
        <ele>329.257</ele>
        <time>2015-06-20T13:51:50Z</time>
      </trkpt>
      <trkpt lat="45.75633" lon="5.50612">
        <ele>331.743</ele>
        <time>2015-06-20T13:52:01Z</time>
      </trkpt>
      <trkpt lat="45.75652" lon="5.50608">
        <ele>333.223</ele>
        <time>2015-06-20T13:52:11Z</time>
      </trkpt>
      <trkpt lat="45.75659" lon="5.50607">
        <ele>333.506</ele>
        <time>2015-06-20T13:52:15Z</time>
      </trkpt>
      <trkpt lat="45.75675" lon="5.50603">
        <ele>334.031</ele>
        <time>2015-06-20T13:52:24Z</time>
      </trkpt>
      <trkpt lat="45.75679" lon="5.50602">
        <ele>334.692</ele>
        <time>2015-06-20T13:52:26Z</time>
      </trkpt>
      <trkpt lat="45.75679" lon="5.50592">
        <ele>335.543</ele>
        <time>2015-06-20T13:52:32Z</time>
      </trkpt>
      <trkpt lat="45.7565" lon="5.50589">
        <ele>335.633</ele>
        <time>2015-06-20T13:52:50Z</time>
      </trkpt>
      <trkpt lat="45.75639" lon="5.5059">
        <ele>335.604</ele>
        <time>2015-06-20T13:54:04Z</time>
      </trkpt>
      <trkpt lat="45.75618" lon="5.50595">
        <ele>335.474</ele>
        <time>2015-06-20T13:55:19Z</time>
      </trkpt>
      <trkpt lat="45.75609" lon="5.50601">
        <ele>335.501</ele>
        <time>2015-06-20T13:55:23Z</time>
      </trkpt>
      <trkpt lat="45.75587" lon="5.50638">
        <ele>335.598</ele>
        <time>2015-06-20T13:55:39Z</time>
      </trkpt>
      <trkpt lat="45.75562" lon="5.50677">
        <ele>337.754</ele>
        <time>2015-06-20T13:55:57Z</time>
      </trkpt>
      <trkpt lat="45.75559" lon="5.50679">
        <ele>337.921</ele>
        <time>2015-06-20T13:55:58Z</time>
      </trkpt>
      <trkpt lat="45.75523" lon="5.50678">
        <ele>340.41</ele>
        <time>2015-06-20T13:56:15Z</time>
      </trkpt>
      <trkpt lat="45.75503" lon="5.50668">
        <ele>341.803</ele>
        <time>2015-06-20T13:56:25Z</time>
      </trkpt>
      <trkpt lat="45.75466" lon="5.50665">
        <ele>343.079</ele>
        <time>2015-06-20T13:56:40Z</time>
      </trkpt>
      <trkpt lat="45.75423" lon="5.50694">
        <ele>344.255</ele>
        <time>2015-06-20T13:56:58Z</time>
      </trkpt>
      <trkpt lat="45.75388" lon="5.50745">
        <ele>346.709</ele>
        <time>2015-06-20T13:57:18Z</time>
      </trkpt>
      <trkpt lat="45.75346" lon="5.50756">
        <ele>347.626</ele>
        <time>2015-06-20T13:57:33Z</time>
      </trkpt>
      <trkpt lat="45.75312" lon="5.50737">
        <ele>348.422</ele>
        <time>2015-06-20T13:57:48Z</time>
      </trkpt>
      <trkpt lat="45.75271" lon="5.50723">
        <ele>350.216</ele>
        <time>2015-06-20T13:58:03Z</time>
      </trkpt>
      <trkpt lat="45.75256" lon="5.50728">
        <ele>350.81</ele>
        <time>2015-06-20T13:58:14Z</time>
      </trkpt>
      <trkpt lat="45.75247" lon="5.50735">
        <ele>352.829</ele>
        <time>2015-06-20T14:00:11Z</time>
      </trkpt>
      <trkpt lat="45.75219" lon="5.50757">
        <ele>352.131</ele>
        <time>2015-06-20T14:00:25Z</time>
      </trkpt>
      <trkpt lat="45.7518" lon="5.50794">
        <ele>354.058</ele>
        <time>2015-06-20T14:00:40Z</time>
      </trkpt>
      <trkpt lat="45.75132" lon="5.50844">
        <ele>354.391</ele>
        <time>2015-06-20T14:00:55Z</time>
      </trkpt>
      <trkpt lat="45.75092" lon="5.50911">
        <ele>354.75</ele>
        <time>2015-06-20T14:01:11Z</time>
      </trkpt>
      <trkpt lat="45.75072" lon="5.50962">
        <ele>353.849</ele>
        <time>2015-06-20T14:01:21Z</time>
      </trkpt>
      <trkpt lat="45.75027" lon="5.51003">
        <ele>355.358</ele>
        <time>2015-06-20T14:01:35Z</time>
      </trkpt>
      <trkpt lat="45.75007" lon="5.51019">
        <ele>355.046</ele>
        <time>2015-06-20T14:01:41Z</time>
      </trkpt>
      <trkpt lat="45.75" lon="5.51027">
        <ele>354.996</ele>
        <time>2015-06-20T14:01:43Z</time>
      </trkpt>
      <trkpt lat="45.74986" lon="5.51049">
        <ele>354.248</ele>
        <time>2015-06-20T14:01:48Z</time>
      </trkpt>
      <trkpt lat="45.74936" lon="5.5112">
        <ele>353.775</ele>
        <time>2015-06-20T14:02:04Z</time>
      </trkpt>
      <trkpt lat="45.74927" lon="5.51132">
        <ele>354.343</ele>
        <time>2015-06-20T14:02:07Z</time>
      </trkpt>
      <trkpt lat="45.74865" lon="5.51211">
        <ele>354.021</ele>
        <time>2015-06-20T14:02:26Z</time>
      </trkpt>
      <trkpt lat="45.74845" lon="5.51236">
        <ele>354.367</ele>
        <time>2015-06-20T14:02:32Z</time>
      </trkpt>
      <trkpt lat="45.74838" lon="5.51245">
        <ele>353.783</ele>
        <time>2015-06-20T14:02:34Z</time>
      </trkpt>
      <trkpt lat="45.74801" lon="5.51279">
        <ele>353.664</ele>
        <time>2015-06-20T14:02:44Z</time>
      </trkpt>
      <trkpt lat="45.74742" lon="5.51317">
        <ele>354.24</ele>
        <time>2015-06-20T14:02:58Z</time>
      </trkpt>
      <trkpt lat="45.74715" lon="5.51326">
        <ele>354.647</ele>
        <time>2015-06-20T14:03:04Z</time>
      </trkpt>
      <trkpt lat="45.74702" lon="5.51329">
        <ele>355.582</ele>
        <time>2015-06-20T14:03:07Z</time>
      </trkpt>
      <trkpt lat="45.74655" lon="5.51373">
        <ele>354.15</ele>
        <time>2015-06-20T14:03:20Z</time>
      </trkpt>
      <trkpt lat="45.74584" lon="5.51437">
        <ele>354.739</ele>
        <time>2015-06-20T14:03:39Z</time>
      </trkpt>
      <trkpt lat="45.7456" lon="5.51456">
        <ele>355.046</ele>
        <time>2015-06-20T14:03:45Z</time>
      </trkpt>
      <trkpt lat="45.74552" lon="5.51464">
        <ele>355.011</ele>
        <time>2015-06-20T14:03:47Z</time>
      </trkpt>
      <trkpt lat="45.74536" lon="5.51492">
        <ele>355.125</ele>
        <time>2015-06-20T14:03:52Z</time>
      </trkpt>
      <trkpt lat="45.74504" lon="5.51611">
        <ele>355.326</ele>
        <time>2015-06-20T14:04:10Z</time>
      </trkpt>
      <trkpt lat="45.74503" lon="5.51617">
        <ele>354.628</ele>
        <time>2015-06-20T14:04:11Z</time>
      </trkpt>
      <trkpt lat="45.74484" lon="5.51661">
        <ele>354.446</ele>
        <time>2015-06-20T14:04:19Z</time>
      </trkpt>
      <trkpt lat="45.74476" lon="5.51678">
        <ele>354.134</ele>
        <time>2015-06-20T14:04:22Z</time>
      </trkpt>
      <trkpt lat="45.74449" lon="5.51749">
        <ele>354.726</ele>
        <time>2015-06-20T14:04:34Z</time>
      </trkpt>
      <trkpt lat="45.74424" lon="5.51846">
        <ele>354.605</ele>
        <time>2015-06-20T14:04:49Z</time>
      </trkpt>
      <trkpt lat="45.74422" lon="5.51859">
        <ele>354.792</ele>
        <time>2015-06-20T14:04:51Z</time>
      </trkpt>
      <trkpt lat="45.74424" lon="5.51948">
        <ele>355.194</ele>
        <time>2015-06-20T14:05:06Z</time>
      </trkpt>
      <trkpt lat="45.74441" lon="5.52023">
        <ele>356.187</ele>
        <time>2015-06-20T14:05:20Z</time>
      </trkpt>
      <trkpt lat="45.74415" lon="5.52093">
        <ele>357.059</ele>
        <time>2015-06-20T14:05:35Z</time>
      </trkpt>
      <trkpt lat="45.74397" lon="5.52121">
        <ele>357.942</ele>
        <time>2015-06-20T14:05:42Z</time>
      </trkpt>
      <trkpt lat="45.74356" lon="5.52187">
        <ele>359.599</ele>
        <time>2015-06-20T14:05:58Z</time>
      </trkpt>
      <trkpt lat="45.74339" lon="5.52236">
        <ele>360.056</ele>
        <time>2015-06-20T14:06:08Z</time>
      </trkpt>
      <trkpt lat="45.74343" lon="5.52314">
        <ele>361.897</ele>
        <time>2015-06-20T14:06:22Z</time>
      </trkpt>
      <trkpt lat="45.74363" lon="5.52386">
        <ele>362.37</ele>
        <time>2015-06-20T14:06:36Z</time>
      </trkpt>
      <trkpt lat="45.744" lon="5.52438">
        <ele>364.883</ele>
        <time>2015-06-20T14:06:49Z</time>
      </trkpt>
      <trkpt lat="45.74408" lon="5.52443">
        <ele>364.725</ele>
        <time>2015-06-20T14:06:51Z</time>
      </trkpt>
      <trkpt lat="45.74435" lon="5.5246">
        <ele>365.375</ele>
        <time>2015-06-20T14:06:58Z</time>
      </trkpt>
      <trkpt lat="45.74457" lon="5.52516">
        <ele>366.033</ele>
        <time>2015-06-20T14:07:10Z</time>
      </trkpt>
      <trkpt lat="45.74446" lon="5.52584">
        <ele>366.714</ele>
        <time>2015-06-20T14:07:23Z</time>
      </trkpt>
      <trkpt lat="45.74442" lon="5.52606">
        <ele>366.984</ele>
        <time>2015-06-20T14:07:27Z</time>
      </trkpt>
      <trkpt lat="45.74444" lon="5.52652">
        <ele>367.557</ele>
        <time>2015-06-20T14:07:35Z</time>
      </trkpt>
      <trkpt lat="45.7445" lon="5.52676">
        <ele>367.068</ele>
        <time>2015-06-20T14:07:39Z</time>
      </trkpt>
      <trkpt lat="45.74453" lon="5.52694">
        <ele>367.515</ele>
        <time>2015-06-20T14:07:42Z</time>
      </trkpt>
      <trkpt lat="45.74461" lon="5.52733">
        <ele>368.318</ele>
        <time>2015-06-20T14:07:48Z</time>
      </trkpt>
      <trkpt lat="45.74481" lon="5.52809">
        <ele>370.075</ele>
        <time>2015-06-20T14:08:02Z</time>
      </trkpt>
      <trkpt lat="45.74497" lon="5.52835">
        <ele>370.966</ele>
        <time>2015-06-20T14:08:09Z</time>
      </trkpt>
      <trkpt lat="45.74545" lon="5.52881">
        <ele>372.049</ele>
        <time>2015-06-20T14:08:23Z</time>
      </trkpt>
      <trkpt lat="45.74581" lon="5.52934">
        <ele>373.603</ele>
        <time>2015-06-20T14:08:37Z</time>
      </trkpt>
      <trkpt lat="45.74607" lon="5.52999">
        <ele>374.763</ele>
        <time>2015-06-20T14:08:52Z</time>
      </trkpt>
      <trkpt lat="45.74639" lon="5.53047">
        <ele>376.018</ele>
        <time>2015-06-20T14:09:04Z</time>
      </trkpt>
      <trkpt lat="45.74677" lon="5.53096">
        <ele>377.595</ele>
        <time>2015-06-20T14:09:17Z</time>
      </trkpt>
      <trkpt lat="45.74719" lon="5.53147">
        <ele>379.553</ele>
        <time>2015-06-20T14:09:33Z</time>
      </trkpt>
      <trkpt lat="45.74725" lon="5.53189">
        <ele>380.158</ele>
        <time>2015-06-20T14:09:48Z</time>
      </trkpt>
      <trkpt lat="45.74725" lon="5.53191">
        <ele>380.277</ele>
        <time>2015-06-20T14:09:49Z</time>
      </trkpt>
      <trkpt lat="45.74723" lon="5.53204">
        <ele>381.163</ele>
        <time>2015-06-20T14:10:04Z</time>
      </trkpt>
      <trkpt lat="45.74722" lon="5.53249">
        <ele>379.931</ele>
        <time>2015-06-20T14:15:33Z</time>
      </trkpt>
      <trkpt lat="45.74708" lon="5.53306">
        <ele>380.674</ele>
        <time>2015-06-20T14:15:49Z</time>
      </trkpt>
      <trkpt lat="45.74682" lon="5.53347">
        <ele>381.009</ele>
        <time>2015-06-20T14:16:03Z</time>
      </trkpt>
      <trkpt lat="45.74647" lon="5.53383">
        <ele>381.456</ele>
        <time>2015-06-20T14:16:18Z</time>
      </trkpt>
      <trkpt lat="45.74616" lon="5.53422">
        <ele>382.082</ele>
        <time>2015-06-20T14:16:32Z</time>
      </trkpt>
      <trkpt lat="45.74597" lon="5.53457">
        <ele>382.074</ele>
        <time>2015-06-20T14:16:41Z</time>
      </trkpt>
      <trkpt lat="45.74564" lon="5.53514">
        <ele>382.32</ele>
        <time>2015-06-20T14:16:58Z</time>
      </trkpt>
      <trkpt lat="45.74523" lon="5.53531">
        <ele>382.957</ele>
        <time>2015-06-20T14:17:11Z</time>
      </trkpt>
      <trkpt lat="45.7445" lon="5.53556">
        <ele>380.898</ele>
        <time>2015-06-20T14:17:30Z</time>
      </trkpt>
      <trkpt lat="45.74437" lon="5.53563">
        <ele>380.941</ele>
        <time>2015-06-20T14:17:33Z</time>
      </trkpt>
      <trkpt lat="45.74354" lon="5.53612">
        <ele>378.319</ele>
        <time>2015-06-20T14:17:49Z</time>
      </trkpt>
      <trkpt lat="45.74336" lon="5.53628">
        <ele>375.376</ele>
        <time>2015-06-20T14:17:52Z</time>
      </trkpt>
      <trkpt lat="45.7429" lon="5.53657">
        <ele>371.84</ele>
        <time>2015-06-20T14:17:58Z</time>
      </trkpt>
      <trkpt lat="45.74282" lon="5.53661">
        <ele>371.84</ele>
        <time>2015-06-20T14:17:59Z</time>
      </trkpt>
      <trkpt lat="45.74227" lon="5.53682">
        <ele>372.131</ele>
        <time>2015-06-20T14:18:07Z</time>
      </trkpt>
      <trkpt lat="45.74231" lon="5.53672">
        <ele>372.128</ele>
        <time>2015-06-20T14:18:13Z</time>
      </trkpt>
      <trkpt lat="45.74228" lon="5.53658">
        <ele>373.843</ele>
        <time>2015-06-20T14:18:17Z</time>
      </trkpt>
      <trkpt lat="45.742" lon="5.53601">
        <ele>372.424</ele>
        <time>2015-06-20T14:18:32Z</time>
      </trkpt>
      <trkpt lat="45.74147" lon="5.53513">
        <ele>372.316</ele>
        <time>2015-06-20T14:18:53Z</time>
      </trkpt>
      <trkpt lat="45.74109" lon="5.53454">
        <ele>372.43</ele>
        <time>2015-06-20T14:19:11Z</time>
      </trkpt>
      <trkpt lat="45.7407" lon="5.53438">
        <ele>370.628</ele>
        <time>2015-06-20T14:19:25Z</time>
      </trkpt>
      <trkpt lat="45.74032" lon="5.53436">
        <ele>368.749</ele>
        <time>2015-06-20T14:19:36Z</time>
      </trkpt>
      <trkpt lat="45.73972" lon="5.53439">
        <ele>364.497</ele>
        <time>2015-06-20T14:19:48Z</time>
      </trkpt>
      <trkpt lat="45.73953" lon="5.53437">
        <ele>362.804</ele>
        <time>2015-06-20T14:19:52Z</time>
      </trkpt>
      <trkpt lat="45.73931" lon="5.53438">
        <ele>361.823</ele>
        <time>2015-06-20T14:19:57Z</time>
      </trkpt>
      <trkpt lat="45.73874" lon="5.53435">
        <ele>359.297</ele>
        <time>2015-06-20T14:20:10Z</time>
      </trkpt>
      <trkpt lat="45.73856" lon="5.53454">
        <ele>357.926</ele>
        <time>2015-06-20T14:20:15Z</time>
      </trkpt>
      <trkpt lat="45.73853" lon="5.53465">
        <ele>356.351</ele>
        <time>2015-06-20T14:20:17Z</time>
      </trkpt>
      <trkpt lat="45.73838" lon="5.53478">
        <ele>355.926</ele>
        <time>2015-06-20T14:20:21Z</time>
      </trkpt>
      <trkpt lat="45.73807" lon="5.53479">
        <ele>352.628</ele>
        <time>2015-06-20T14:20:26Z</time>
      </trkpt>
      <trkpt lat="45.73801" lon="5.53479">
        <ele>352.628</ele>
        <time>2015-06-20T14:20:27Z</time>
      </trkpt>
      <trkpt lat="45.73788" lon="5.53482">
        <ele>351.146</ele>
        <time>2015-06-20T14:20:29Z</time>
      </trkpt>
      <trkpt lat="45.73778" lon="5.53494">
        <ele>352.488</ele>
        <time>2015-06-20T14:20:31Z</time>
      </trkpt>
      <trkpt lat="45.73776" lon="5.535">
        <ele>352.977</ele>
        <time>2015-06-20T14:20:32Z</time>
      </trkpt>
      <trkpt lat="45.73769" lon="5.53517">
        <ele>352.673</ele>
        <time>2015-06-20T14:20:35Z</time>
      </trkpt>
      <trkpt lat="45.73755" lon="5.53532">
        <ele>352.026</ele>
        <time>2015-06-20T14:20:39Z</time>
      </trkpt>
      <trkpt lat="45.73723" lon="5.53566">
        <ele>350.752</ele>
        <time>2015-06-20T14:20:50Z</time>
      </trkpt>
      <trkpt lat="45.7372" lon="5.53566">
        <ele>350.081</ele>
        <time>2015-06-20T14:21:07Z</time>
      </trkpt>
      <trkpt lat="45.73683" lon="5.53586">
        <ele>348.041</ele>
        <time>2015-06-20T14:22:14Z</time>
      </trkpt>
      <trkpt lat="45.73657" lon="5.5362">
        <ele>346.741</ele>
        <time>2015-06-20T14:22:23Z</time>
      </trkpt>
      <trkpt lat="45.73615" lon="5.53663">
        <ele>343.525</ele>
        <time>2015-06-20T14:22:35Z</time>
      </trkpt>
      <trkpt lat="45.73584" lon="5.53702">
        <ele>342.244</ele>
        <time>2015-06-20T14:22:44Z</time>
      </trkpt>
      <trkpt lat="45.73566" lon="5.53722">
        <ele>339.99</ele>
        <time>2015-06-20T14:22:49Z</time>
      </trkpt>
      <trkpt lat="45.73549" lon="5.53735">
        <ele>337.998</ele>
        <time>2015-06-20T14:22:53Z</time>
      </trkpt>
      <trkpt lat="45.73542" lon="5.53746">
        <ele>337.363</ele>
        <time>2015-06-20T14:23:03Z</time>
      </trkpt>
      <trkpt lat="45.73524" lon="5.53779">
        <ele>336.016</ele>
        <time>2015-06-20T14:24:08Z</time>
      </trkpt>
      <trkpt lat="45.73519" lon="5.53787">
        <ele>337.387</ele>
        <time>2015-06-20T14:24:18Z</time>
      </trkpt>
      <trkpt lat="45.73527" lon="5.53802">
        <ele>336.283</ele>
        <time>2015-06-20T14:24:31Z</time>
      </trkpt>
      <trkpt lat="45.73531" lon="5.53803">
        <ele>335.987</ele>
        <time>2015-06-20T14:24:33Z</time>
      </trkpt>
      <trkpt lat="45.73538" lon="5.53809">
        <ele>335.783</ele>
        <time>2015-06-20T14:24:37Z</time>
      </trkpt>
      <trkpt lat="45.73545" lon="5.53811">
        <ele>336.288</ele>
        <time>2015-06-20T14:24:40Z</time>
      </trkpt>
      <trkpt lat="45.73553" lon="5.53825">
        <ele>337.326</ele>
        <time>2015-06-20T14:24:45Z</time>
      </trkpt>
      <trkpt lat="45.73562" lon="5.5384">
        <ele>337.696</ele>
        <time>2015-06-20T14:24:51Z</time>
      </trkpt>
      <trkpt lat="45.73569" lon="5.53908">
        <ele>339.007</ele>
        <time>2015-06-20T14:25:09Z</time>
      </trkpt>
      <trkpt lat="45.73572" lon="5.53973">
        <ele>338.722</ele>
        <time>2015-06-20T14:25:25Z</time>
      </trkpt>
      <trkpt lat="45.73583" lon="5.54052">
        <ele>339.57</ele>
        <time>2015-06-20T14:25:42Z</time>
      </trkpt>
      <trkpt lat="45.7359" lon="5.54103">
        <ele>342.585</ele>
        <time>2015-06-20T14:25:54Z</time>
      </trkpt>
      <trkpt lat="45.73591" lon="5.5411">
        <ele>340.891</ele>
        <time>2015-06-20T14:26:03Z</time>
      </trkpt>
      <trkpt lat="45.73575" lon="5.54129">
        <ele>344.387</ele>
        <time>2015-06-20T14:28:39Z</time>
      </trkpt>
      <trkpt lat="45.73579" lon="5.54147">
        <ele>345.259</ele>
        <time>2015-06-20T14:28:45Z</time>
      </trkpt>
      <trkpt lat="45.73593" lon="5.54153">
        <ele>346.033</ele>
        <time>2015-06-20T14:28:52Z</time>
      </trkpt>
      <trkpt lat="45.736" lon="5.5416">
        <ele>346.207</ele>
        <time>2015-06-20T14:28:56Z</time>
      </trkpt>
      <trkpt lat="45.73603" lon="5.54167">
        <ele>347.193</ele>
        <time>2015-06-20T14:29:00Z</time>
      </trkpt>
      <trkpt lat="45.73602" lon="5.542">
        <ele>348.585</ele>
        <time>2015-06-20T14:29:13Z</time>
      </trkpt>
      <trkpt lat="45.73604" lon="5.54211">
        <ele>348.004</ele>
        <time>2015-06-20T14:29:18Z</time>
      </trkpt>
      <trkpt lat="45.73602" lon="5.54218">
        <ele>348.522</ele>
        <time>2015-06-20T14:29:22Z</time>
      </trkpt>
      <trkpt lat="45.73575" lon="5.54253">
        <ele>346.981</ele>
        <time>2015-06-20T14:29:38Z</time>
      </trkpt>
      <trkpt lat="45.7356" lon="5.54275">
        <ele>345.769</ele>
        <time>2015-06-20T14:29:42Z</time>
      </trkpt>
      <trkpt lat="45.73532" lon="5.54318">
        <ele>341.742</ele>
        <time>2015-06-20T14:29:48Z</time>
      </trkpt>
      <trkpt lat="45.73527" lon="5.54326">
        <ele>341.742</ele>
        <time>2015-06-20T14:29:49Z</time>
      </trkpt>
      <trkpt lat="45.73509" lon="5.54351">
        <ele>340.418</ele>
        <time>2015-06-20T14:29:52Z</time>
      </trkpt>
      <trkpt lat="45.73484" lon="5.54384">
        <ele>339.752</ele>
        <time>2015-06-20T14:29:56Z</time>
      </trkpt>
      <trkpt lat="45.73459" lon="5.54406">
        <ele>335.908</ele>
        <time>2015-06-20T14:29:59Z</time>
      </trkpt>
      <trkpt lat="45.73438" lon="5.54417">
        <ele>334.304</ele>
        <time>2015-06-20T14:30:01Z</time>
      </trkpt>
      <trkpt lat="45.7342" lon="5.54424">
        <ele>332.877</ele>
        <time>2015-06-20T14:30:03Z</time>
      </trkpt>
      <trkpt lat="45.73378" lon="5.54432">
        <ele>331.545</ele>
        <time>2015-06-20T14:30:11Z</time>
      </trkpt>
      <trkpt lat="45.73366" lon="5.54418">
        <ele>331.397</ele>
        <time>2015-06-20T14:30:16Z</time>
      </trkpt>
      <trkpt lat="45.73355" lon="5.54383">
        <ele>334.843</ele>
        <time>2015-06-20T14:30:28Z</time>
      </trkpt>
      <trkpt lat="45.73342" lon="5.54344">
        <ele>337.762</ele>
        <time>2015-06-20T14:30:40Z</time>
      </trkpt>
      <trkpt lat="45.73311" lon="5.54305">
        <ele>339.72</ele>
        <time>2015-06-20T14:30:57Z</time>
      </trkpt>
      <trkpt lat="45.73281" lon="5.54263">
        <ele>339.982</ele>
        <time>2015-06-20T14:31:12Z</time>
      </trkpt>
      <trkpt lat="45.73241" lon="5.54244">
        <ele>339.184</ele>
        <time>2015-06-20T14:31:27Z</time>
      </trkpt>
      <trkpt lat="45.73234" lon="5.54238">
        <ele>339.068</ele>
        <time>2015-06-20T14:31:29Z</time>
      </trkpt>
      <trkpt lat="45.73226" lon="5.5423">
        <ele>339.675</ele>
        <time>2015-06-20T14:31:31Z</time>
      </trkpt>
      <trkpt lat="45.7322" lon="5.5422">
        <ele>341.697</ele>
        <time>2015-06-20T14:31:33Z</time>
      </trkpt>
      <trkpt lat="45.73213" lon="5.54205">
        <ele>343.177</ele>
        <time>2015-06-20T14:31:36Z</time>
      </trkpt>
      <trkpt lat="45.73211" lon="5.54201">
        <ele>343.248</ele>
        <time>2015-06-20T14:31:37Z</time>
      </trkpt>
      <trkpt lat="45.73207" lon="5.54187">
        <ele>343.269</ele>
        <time>2015-06-20T14:32:18Z</time>
      </trkpt>
      <trkpt lat="45.73204" lon="5.54184">
        <ele>343.118</ele>
        <time>2015-06-20T14:32:30Z</time>
      </trkpt>
      <trkpt lat="45.73186" lon="5.54162">
        <ele>341.314</ele>
        <time>2015-06-20T14:32:39Z</time>
      </trkpt>
      <trkpt lat="45.7318" lon="5.54155">
        <ele>340.035</ele>
        <time>2015-06-20T14:32:41Z</time>
      </trkpt>
      <trkpt lat="45.73164" lon="5.54143">
        <ele>337.884</ele>
        <time>2015-06-20T14:32:45Z</time>
      </trkpt>
      <trkpt lat="45.73156" lon="5.54139">
        <ele>333.315</ele>
        <time>2015-06-20T14:32:47Z</time>
      </trkpt>
      <trkpt lat="45.7315" lon="5.54138">
        <ele>333.315</ele>
        <time>2015-06-20T14:32:48Z</time>
      </trkpt>
      <trkpt lat="45.73138" lon="5.54136">
        <ele>331.479</ele>
        <time>2015-06-20T14:32:50Z</time>
      </trkpt>
      <trkpt lat="45.73125" lon="5.54131">
        <ele>329.518</ele>
        <time>2015-06-20T14:32:52Z</time>
      </trkpt>
      <trkpt lat="45.73115" lon="5.5413">
        <ele>328.089</ele>
        <time>2015-06-20T14:32:54Z</time>
      </trkpt>
      <trkpt lat="45.73098" lon="5.54124">
        <ele>325.587</ele>
        <time>2015-06-20T14:32:59Z</time>
      </trkpt>
      <trkpt lat="45.73094" lon="5.54118">
        <ele>325.066</ele>
        <time>2015-06-20T14:33:03Z</time>
      </trkpt>
      <trkpt lat="45.73093" lon="5.54108">
        <ele>323.697</ele>
        <time>2015-06-20T14:33:19Z</time>
      </trkpt>
      <trkpt lat="45.73096" lon="5.54078">
        <ele>322.886</ele>
        <time>2015-06-20T14:33:42Z</time>
      </trkpt>
      <trkpt lat="45.73096" lon="5.54053">
        <ele>321.93</ele>
        <time>2015-06-20T14:33:46Z</time>
      </trkpt>
      <trkpt lat="45.73097" lon="5.54037">
        <ele>320.003</ele>
        <time>2015-06-20T14:33:48Z</time>
      </trkpt>
      <trkpt lat="45.73105" lon="5.54002">
        <ele>316.69</ele>
        <time>2015-06-20T14:33:52Z</time>
      </trkpt>
      <trkpt lat="45.73107" lon="5.53993">
        <ele>316.69</ele>
        <time>2015-06-20T14:33:53Z</time>
      </trkpt>
      <trkpt lat="45.73113" lon="5.53966">
        <ele>317.218</ele>
        <time>2015-06-20T14:33:56Z</time>
      </trkpt>
      <trkpt lat="45.73115" lon="5.53935">
        <ele>313.741</ele>
        <time>2015-06-20T14:33:59Z</time>
      </trkpt>
      <trkpt lat="45.73116" lon="5.53923">
        <ele>313.741</ele>
        <time>2015-06-20T14:34:00Z</time>
      </trkpt>
      <trkpt lat="45.73116" lon="5.53899">
        <ele>311.537</ele>
        <time>2015-06-20T14:34:02Z</time>
      </trkpt>
      <trkpt lat="45.73111" lon="5.53866">
        <ele>308.974</ele>
        <time>2015-06-20T14:34:05Z</time>
      </trkpt>
      <trkpt lat="45.73097" lon="5.53821">
        <ele>308.184</ele>
        <time>2015-06-20T14:34:09Z</time>
      </trkpt>
      <trkpt lat="45.73074" lon="5.53789">
        <ele>306.728</ele>
        <time>2015-06-20T14:34:13Z</time>
      </trkpt>
      <trkpt lat="45.73056" lon="5.53777">
        <ele>306.166</ele>
        <time>2015-06-20T14:34:16Z</time>
      </trkpt>
      <trkpt lat="45.7305" lon="5.53734">
        <ele>305.333</ele>
        <time>2015-06-20T14:34:22Z</time>
      </trkpt>
      <trkpt lat="45.73054" lon="5.53718">
        <ele>305.064</ele>
        <time>2015-06-20T14:34:24Z</time>
      </trkpt>
      <trkpt lat="45.73049" lon="5.53685">
        <ele>305.486</ele>
        <time>2015-06-20T14:34:30Z</time>
      </trkpt>
      <trkpt lat="45.73044" lon="5.53679">
        <ele>305.251</ele>
        <time>2015-06-20T14:34:52Z</time>
      </trkpt>
      <trkpt lat="45.73026" lon="5.53654">
        <ele>302.39</ele>
        <time>2015-06-20T14:35:47Z</time>
      </trkpt>
      <trkpt lat="45.73017" lon="5.53644">
        <ele>301.756</ele>
        <time>2015-06-20T14:35:49Z</time>
      </trkpt>
      <trkpt lat="45.73013" lon="5.5363">
        <ele>300.234</ele>
        <time>2015-06-20T14:35:51Z</time>
      </trkpt>
      <trkpt lat="45.73013" lon="5.53612">
        <ele>298.59</ele>
        <time>2015-06-20T14:35:53Z</time>
      </trkpt>
      <trkpt lat="45.73014" lon="5.53588">
        <ele>297.419</ele>
        <time>2015-06-20T14:35:56Z</time>
      </trkpt>
      <trkpt lat="45.73019" lon="5.5357">
        <ele>296.019</ele>
        <time>2015-06-20T14:35:58Z</time>
      </trkpt>
      <trkpt lat="45.73029" lon="5.53543">
        <ele>294.904</ele>
        <time>2015-06-20T14:36:05Z</time>
      </trkpt>
      <trkpt lat="45.73059" lon="5.53512">
        <ele>294.405</ele>
        <time>2015-06-20T14:36:15Z</time>
      </trkpt>
      <trkpt lat="45.73067" lon="5.53502">
        <ele>295.676</ele>
        <time>2015-06-20T14:36:24Z</time>
      </trkpt>
      <trkpt lat="45.7307" lon="5.53493">
        <ele>295.821</ele>
        <time>2015-06-20T14:36:30Z</time>
      </trkpt>
      <trkpt lat="45.73065" lon="5.53467">
        <ele>295.361</ele>
        <time>2015-06-20T14:38:34Z</time>
      </trkpt>
      <trkpt lat="45.73061" lon="5.53466">
        <ele>294.896</ele>
        <time>2015-06-20T14:38:46Z</time>
      </trkpt>
      <trkpt lat="45.73058" lon="5.53461">
        <ele>293.496</ele>
        <time>2015-06-20T14:38:59Z</time>
      </trkpt>
      <trkpt lat="45.73044" lon="5.53445">
        <ele>290.042</ele>
        <time>2015-06-20T14:40:43Z</time>
      </trkpt>
      <trkpt lat="45.7304" lon="5.53443">
        <ele>290.209</ele>
        <time>2015-06-20T14:40:58Z</time>
      </trkpt>
      <trkpt lat="45.7304" lon="5.53436">
        <ele>289.474</ele>
        <time>2015-06-20T14:41:01Z</time>
      </trkpt>
      <trkpt lat="45.7304" lon="5.53424">
        <ele>287.228</ele>
        <time>2015-06-20T14:41:06Z</time>
      </trkpt>
      <trkpt lat="45.73035" lon="5.53401">
        <ele>285.297</ele>
        <time>2015-06-20T14:41:11Z</time>
      </trkpt>
      <trkpt lat="45.73031" lon="5.53398">
        <ele>285.053</ele>
        <time>2015-06-20T14:41:13Z</time>
      </trkpt>
      <trkpt lat="45.7301" lon="5.53372">
        <ele>282.8</ele>
        <time>2015-06-20T14:41:26Z</time>
      </trkpt>
      <trkpt lat="45.73004" lon="5.53364">
        <ele>281.034</ele>
        <time>2015-06-20T14:41:41Z</time>
      </trkpt>
      <trkpt lat="45.72996" lon="5.53346">
        <ele>277.523</ele>
        <time>2015-06-20T14:41:55Z</time>
      </trkpt>
      <trkpt lat="45.72994" lon="5.53342">
        <ele>277.499</ele>
        <time>2015-06-20T14:42:11Z</time>
      </trkpt>
      <trkpt lat="45.72985" lon="5.53315">
        <ele>275.478</ele>
        <time>2015-06-20T14:42:30Z</time>
      </trkpt>
      <trkpt lat="45.72977" lon="5.53278">
        <ele>272.423</ele>
        <time>2015-06-20T14:42:39Z</time>
      </trkpt>
      <trkpt lat="45.72976" lon="5.53275">
        <ele>272.423</ele>
        <time>2015-06-20T14:42:40Z</time>
      </trkpt>
      <trkpt lat="45.72976" lon="5.53261">
        <ele>270.703</ele>
        <time>2015-06-20T14:42:52Z</time>
      </trkpt>
      <trkpt lat="45.72987" lon="5.53235">
        <ele>269.112</ele>
        <time>2015-06-20T14:43:27Z</time>
      </trkpt>
      <trkpt lat="45.72982" lon="5.53223">
        <ele>267.231</ele>
        <time>2015-06-20T14:43:40Z</time>
      </trkpt>
      <trkpt lat="45.72971" lon="5.53209">
        <ele>264.385</ele>
        <time>2015-06-20T14:44:05Z</time>
      </trkpt>
      <trkpt lat="45.72969" lon="5.53203">
        <ele>261.756</ele>
        <time>2015-06-20T14:44:17Z</time>
      </trkpt>
      <trkpt lat="45.72965" lon="5.53193">
        <ele>261.354</ele>
        <time>2015-06-20T14:44:39Z</time>
      </trkpt>
      <trkpt lat="45.72962" lon="5.53169">
        <ele>257.452</ele>
        <time>2015-06-20T14:44:46Z</time>
      </trkpt>
      <trkpt lat="45.72962" lon="5.53164">
        <ele>256.767</ele>
        <time>2015-06-20T14:44:48Z</time>
      </trkpt>
      <trkpt lat="45.72966" lon="5.53144">
        <ele>254.26</ele>
        <time>2015-06-20T14:45:02Z</time>
      </trkpt>
      <trkpt lat="45.72967" lon="5.53141">
        <ele>254.691</ele>
        <time>2015-06-20T14:45:05Z</time>
      </trkpt>
      <trkpt lat="45.72971" lon="5.53129">
        <ele>252.976</ele>
        <time>2015-06-20T14:45:17Z</time>
      </trkpt>
      <trkpt lat="45.72971" lon="5.5312">
        <ele>251.314</ele>
        <time>2015-06-20T14:45:55Z</time>
      </trkpt>
      <trkpt lat="45.72974" lon="5.53118">
        <ele>252.138</ele>
        <time>2015-06-20T14:46:32Z</time>
      </trkpt>
      <trkpt lat="45.72975" lon="5.53114">
        <ele>251.697</ele>
        <time>2015-06-20T14:46:44Z</time>
      </trkpt>
      <trkpt lat="45.72977" lon="5.53107">
        <ele>250.664</ele>
        <time>2015-06-20T14:46:48Z</time>
      </trkpt>
      <trkpt lat="45.72978" lon="5.53099">
        <ele>249.113</ele>
        <time>2015-06-20T14:46:51Z</time>
      </trkpt>
      <trkpt lat="45.72987" lon="5.53063">
        <ele>245.775</ele>
        <time>2015-06-20T14:47:01Z</time>
      </trkpt>
      <trkpt lat="45.72988" lon="5.53048">
        <ele>244.393</ele>
        <time>2015-06-20T14:47:04Z</time>
      </trkpt>
      <trkpt lat="45.72989" lon="5.53018">
        <ele>240.871</ele>
        <time>2015-06-20T14:47:12Z</time>
      </trkpt>
      <trkpt lat="45.72985" lon="5.53012">
        <ele>239.846</ele>
        <time>2015-06-20T14:47:14Z</time>
      </trkpt>
      <trkpt lat="45.72981" lon="5.53008">
        <ele>238.292</ele>
        <time>2015-06-20T14:47:16Z</time>
      </trkpt>
      <trkpt lat="45.72973" lon="5.53007">
        <ele>235.83</ele>
        <time>2015-06-20T14:47:21Z</time>
      </trkpt>
      <trkpt lat="45.7296" lon="5.5302">
        <ele>232.849</ele>
        <time>2015-06-20T14:47:28Z</time>
      </trkpt>
      <trkpt lat="45.72948" lon="5.53022">
        <ele>229.367</ele>
        <time>2015-06-20T14:47:34Z</time>
      </trkpt>
      <trkpt lat="45.72944" lon="5.53019">
        <ele>227.52</ele>
        <time>2015-06-20T14:47:36Z</time>
      </trkpt>
      <trkpt lat="45.7293" lon="5.53018">
        <ele>223.709</ele>
        <time>2015-06-20T14:47:43Z</time>
      </trkpt>
      <trkpt lat="45.72928" lon="5.53016">
        <ele>223.709</ele>
        <time>2015-06-20T14:47:44Z</time>
      </trkpt>
      <trkpt lat="45.72922" lon="5.53004">
        <ele>220.047</ele>
        <time>2015-06-20T14:47:49Z</time>
      </trkpt>
      <trkpt lat="45.72919" lon="5.52992">
        <ele>217.928</ele>
        <time>2015-06-20T14:47:53Z</time>
      </trkpt>
      <trkpt lat="45.72915" lon="5.52979">
        <ele>215.442</ele>
        <time>2015-06-20T14:47:58Z</time>
      </trkpt>
      <trkpt lat="45.72913" lon="5.52973">
        <ele>214.11</ele>
        <time>2015-06-20T14:48:01Z</time>
      </trkpt>
      <trkpt lat="45.72912" lon="5.52966">
        <ele>213.486</ele>
        <time>2015-06-20T14:48:04Z</time>
      </trkpt>
      <trkpt lat="45.72906" lon="5.52956">
        <ele>211.399</ele>
        <time>2015-06-20T14:48:12Z</time>
      </trkpt>
      <trkpt lat="45.72903" lon="5.52942">
        <ele>210.207</ele>
        <time>2015-06-20T14:48:32Z</time>
      </trkpt>
      <trkpt lat="45.72896" lon="5.52924">
        <ele>208.387</ele>
        <time>2015-06-20T14:48:46Z</time>
      </trkpt>
      <trkpt lat="45.72894" lon="5.52919">
        <ele>207.639</ele>
        <time>2015-06-20T14:48:49Z</time>
      </trkpt>
      <trkpt lat="45.72894" lon="5.52913">
        <ele>206.838</ele>
        <time>2015-06-20T14:49:07Z</time>
      </trkpt>
      <trkpt lat="45.72891" lon="5.52907">
        <ele>206.302</ele>
        <time>2015-06-20T14:50:41Z</time>
      </trkpt>
      <trkpt lat="45.72902" lon="5.52897">
        <ele>205.446</ele>
        <time>2015-06-20T14:50:51Z</time>
      </trkpt>
      <trkpt lat="45.72904" lon="5.52895">
        <ele>205.2</ele>
        <time>2015-06-20T14:51:14Z</time>
      </trkpt>
      <trkpt lat="45.72917" lon="5.52878">
        <ele>205.269</ele>
        <time>2015-06-20T14:51:30Z</time>
      </trkpt>
      <trkpt lat="45.72941" lon="5.52836">
        <ele>205.612</ele>
        <time>2015-06-20T14:51:44Z</time>
      </trkpt>
      <trkpt lat="45.72969" lon="5.52781">
        <ele>205.623</ele>
        <time>2015-06-20T14:51:59Z</time>
      </trkpt>
      <trkpt lat="45.73021" lon="5.52686">
        <ele>203.369</ele>
        <time>2015-06-20T14:52:19Z</time>
      </trkpt>
      <trkpt lat="45.73048" lon="5.52638">
        <ele>203.81</ele>
        <time>2015-06-20T14:52:29Z</time>
      </trkpt>
      <trkpt lat="45.73052" lon="5.5263">
        <ele>202.386</ele>
        <time>2015-06-20T14:52:31Z</time>
      </trkpt>
      <trkpt lat="45.73098" lon="5.52549">
        <ele>202.584</ele>
        <time>2015-06-20T14:52:50Z</time>
      </trkpt>
      <trkpt lat="45.73151" lon="5.52447">
        <ele>203.34</ele>
        <time>2015-06-20T14:53:12Z</time>
      </trkpt>
      <trkpt lat="45.73187" lon="5.52376">
        <ele>204.006</ele>
        <time>2015-06-20T14:53:31Z</time>
      </trkpt>
      <trkpt lat="45.73234" lon="5.52301">
        <ele>204.806</ele>
        <time>2015-06-20T14:53:51Z</time>
      </trkpt>
      <trkpt lat="45.73262" lon="5.52244">
        <ele>201.765</ele>
        <time>2015-06-20T14:54:02Z</time>
      </trkpt>
      <trkpt lat="45.73315" lon="5.5214">
        <ele>201.406</ele>
        <time>2015-06-20T14:54:22Z</time>
      </trkpt>
      <trkpt lat="45.73403" lon="5.52016">
        <ele>202.576</ele>
        <time>2015-06-20T14:54:51Z</time>
      </trkpt>
      <trkpt lat="45.73419" lon="5.51994">
        <ele>203.673</ele>
        <time>2015-06-20T14:54:57Z</time>
      </trkpt>
      <trkpt lat="45.73465" lon="5.51942">
        <ele>205.789</ele>
        <time>2015-06-20T14:55:15Z</time>
      </trkpt>
      <trkpt lat="45.73496" lon="5.51914">
        <ele>207.002</ele>
        <time>2015-06-20T14:55:32Z</time>
      </trkpt>
      <trkpt lat="45.73533" lon="5.51886">
        <ele>209.475</ele>
        <time>2015-06-20T14:55:53Z</time>
      </trkpt>
      <trkpt lat="45.73537" lon="5.51886">
        <ele>210.392</ele>
        <time>2015-06-20T14:55:56Z</time>
      </trkpt>
      <trkpt lat="45.73539" lon="5.51881">
        <ele>210.683</ele>
        <time>2015-06-20T14:56:00Z</time>
      </trkpt>
      <trkpt lat="45.73546" lon="5.51873">
        <ele>210.183</ele>
        <time>2015-06-20T14:56:04Z</time>
      </trkpt>
      <trkpt lat="45.73561" lon="5.51845">
        <ele>211.174</ele>
        <time>2015-06-20T14:56:13Z</time>
      </trkpt>
      <trkpt lat="45.73601" lon="5.51755">
        <ele>209.443</ele>
        <time>2015-06-20T14:56:33Z</time>
      </trkpt>
      <trkpt lat="45.73635" lon="5.51699">
        <ele>209.43</ele>
        <time>2015-06-20T14:56:48Z</time>
      </trkpt>
      <trkpt lat="45.73676" lon="5.51666">
        <ele>211.853</ele>
        <time>2015-06-20T14:57:00Z</time>
      </trkpt>
      <trkpt lat="45.73727" lon="5.5165">
        <ele>212.347</ele>
        <time>2015-06-20T14:57:10Z</time>
      </trkpt>
      <trkpt lat="45.73745" lon="5.51648">
        <ele>210.12</ele>
        <time>2015-06-20T14:57:13Z</time>
      </trkpt>
      <trkpt lat="45.73833" lon="5.51629">
        <ele>211.066</ele>
        <time>2015-06-20T14:57:29Z</time>
      </trkpt>
      <trkpt lat="45.73866" lon="5.51603">
        <ele>212.575</ele>
        <time>2015-06-20T14:57:37Z</time>
      </trkpt>
      <trkpt lat="45.73928" lon="5.51518">
        <ele>212.614</ele>
        <time>2015-06-20T14:57:55Z</time>
      </trkpt>
      <trkpt lat="45.73978" lon="5.51433">
        <ele>212.902</ele>
        <time>2015-06-20T14:58:13Z</time>
      </trkpt>
      <trkpt lat="45.74031" lon="5.51347">
        <ele>213.523</ele>
        <time>2015-06-20T14:58:34Z</time>
      </trkpt>
      <trkpt lat="45.74038" lon="5.51337">
        <ele>215.621</ele>
        <time>2015-06-20T14:58:37Z</time>
      </trkpt>
      <trkpt lat="45.74095" lon="5.51243">
        <ele>216.921</ele>
        <time>2015-06-20T14:59:00Z</time>
      </trkpt>
      <trkpt lat="45.74119" lon="5.51204">
        <ele>215.975</ele>
        <time>2015-06-20T14:59:09Z</time>
      </trkpt>
      <trkpt lat="45.74125" lon="5.51195">
        <ele>218.686</ele>
        <time>2015-06-20T14:59:11Z</time>
      </trkpt>
      <trkpt lat="45.74147" lon="5.51172">
        <ele>220.491</ele>
        <time>2015-06-20T14:59:18Z</time>
      </trkpt>
      <trkpt lat="45.74187" lon="5.51134">
        <ele>224</ele>
        <time>2015-06-20T14:59:31Z</time>
      </trkpt>
      <trkpt lat="45.74197" lon="5.51126">
        <ele>226.867</ele>
        <time>2015-06-20T14:59:35Z</time>
      </trkpt>
      <trkpt lat="45.74248" lon="5.51081">
        <ele>226.92</ele>
        <time>2015-06-20T14:59:55Z</time>
      </trkpt>
      <trkpt lat="45.74278" lon="5.51054">
        <ele>228.608</ele>
        <time>2015-06-20T15:00:09Z</time>
      </trkpt>
      <trkpt lat="45.74275" lon="5.5104">
        <ele>230.202</ele>
        <time>2015-06-20T15:00:34Z</time>
      </trkpt>
      <trkpt lat="45.74264" lon="5.5101">
        <ele>231.837</ele>
        <time>2015-06-20T15:00:46Z</time>
      </trkpt>
      <trkpt lat="45.74248" lon="5.50985">
        <ele>231.708</ele>
        <time>2015-06-20T15:00:56Z</time>
      </trkpt>
      <trkpt lat="45.74248" lon="5.5097">
        <ele>232.173</ele>
        <time>2015-06-20T15:01:11Z</time>
      </trkpt>
      <trkpt lat="45.74247" lon="5.50962">
        <ele>232.352</ele>
        <time>2015-06-20T15:15:01Z</time>
      </trkpt>
      <trkpt lat="45.74245" lon="5.5096">
        <ele>232.498</ele>
        <time>2015-06-20T15:15:11Z</time>
      </trkpt>
      <trkpt lat="45.7424" lon="5.50952">
        <ele>232.199</ele>
        <time>2015-06-20T15:15:15Z</time>
      </trkpt>
      <trkpt lat="45.74232" lon="5.50943">
        <ele>234.062</ele>
        <time>2015-06-20T15:15:26Z</time>
      </trkpt>
      <trkpt lat="45.74225" lon="5.50932">
        <ele>234.094</ele>
        <time>2015-06-20T15:15:38Z</time>
      </trkpt>
      <trkpt lat="45.74218" lon="5.50917">
        <ele>234.244</ele>
        <time>2015-06-20T15:15:52Z</time>
      </trkpt>
      <trkpt lat="45.74217" lon="5.50915">
        <ele>234.316</ele>
        <time>2015-06-20T15:15:54Z</time>
      </trkpt>
      <trkpt lat="45.7421" lon="5.50909">
        <ele>234.918</ele>
        <time>2015-06-20T15:16:00Z</time>
      </trkpt>
      <trkpt lat="45.74205" lon="5.5091">
        <ele>234.506</ele>
        <time>2015-06-20T15:16:03Z</time>
      </trkpt>
      <trkpt lat="45.74201" lon="5.50909">
        <ele>235.333</ele>
        <time>2015-06-20T15:16:05Z</time>
      </trkpt>
      <trkpt lat="45.74193" lon="5.50909">
        <ele>235.848</ele>
        <time>2015-06-20T15:16:18Z</time>
      </trkpt>
      <trkpt lat="45.74188" lon="5.5091">
        <ele>235.373</ele>
        <time>2015-06-20T15:16:37Z</time>
      </trkpt>
      <trkpt lat="45.74182" lon="5.50895">
        <ele>236.208</ele>
        <time>2015-06-20T15:16:46Z</time>
      </trkpt>
      <trkpt lat="45.7417" lon="5.50898">
        <ele>235.32</ele>
        <time>2015-06-20T15:16:58Z</time>
      </trkpt>
      <trkpt lat="45.74164" lon="5.509">
        <ele>235.082</ele>
        <time>2015-06-20T15:17:11Z</time>
      </trkpt>
      <trkpt lat="45.7416" lon="5.50904">
        <ele>234.863</ele>
        <time>2015-06-20T15:17:17Z</time>
      </trkpt>
      <trkpt lat="45.7415" lon="5.50908">
        <ele>234.767</ele>
        <time>2015-06-20T15:17:27Z</time>
      </trkpt>
      <trkpt lat="45.74143" lon="5.50914">
        <ele>234.752</ele>
        <time>2015-06-20T15:17:40Z</time>
      </trkpt>
      <trkpt lat="45.74138" lon="5.50918">
        <ele>235.026</ele>
        <time>2015-06-20T15:17:44Z</time>
      </trkpt>
      <trkpt lat="45.74127" lon="5.50921">
        <ele>235.645</ele>
        <time>2015-06-20T15:17:50Z</time>
      </trkpt>
      <trkpt lat="45.74108" lon="5.50936">
        <ele>234.627</ele>
        <time>2015-06-20T15:18:03Z</time>
      </trkpt>
      <trkpt lat="45.74106" lon="5.50937">
        <ele>234.572</ele>
        <time>2015-06-20T15:18:05Z</time>
      </trkpt>
      <trkpt lat="45.74087" lon="5.50952">
        <ele>234.028</ele>
        <time>2015-06-20T15:18:17Z</time>
      </trkpt>
      <trkpt lat="45.74085" lon="5.50954">
        <ele>234.028</ele>
        <time>2015-06-20T15:18:18Z</time>
      </trkpt>
      <trkpt lat="45.74078" lon="5.50957">
        <ele>234.622</ele>
        <time>2015-06-20T15:18:21Z</time>
      </trkpt>
      <trkpt lat="45.74057" lon="5.50975">
        <ele>235.28</ele>
        <time>2015-06-20T15:18:34Z</time>
      </trkpt>
      <trkpt lat="45.74048" lon="5.50975">
        <ele>233.491</ele>
        <time>2015-06-20T15:18:39Z</time>
      </trkpt>
      <trkpt lat="45.74043" lon="5.50978">
        <ele>232.942</ele>
        <time>2015-06-20T15:18:41Z</time>
      </trkpt>
      <trkpt lat="45.74035" lon="5.50976">
        <ele>232.506</ele>
        <time>2015-06-20T15:18:45Z</time>
      </trkpt>
      <trkpt lat="45.74029" lon="5.50979">
        <ele>232.014</ele>
        <time>2015-06-20T15:18:49Z</time>
      </trkpt>
      <trkpt lat="45.74018" lon="5.50977">
        <ele>231.356</ele>
        <time>2015-06-20T15:18:54Z</time>
      </trkpt>
      <trkpt lat="45.74004" lon="5.50974">
        <ele>228.944</ele>
        <time>2015-06-20T15:19:00Z</time>
      </trkpt>
      <trkpt lat="45.74" lon="5.5097">
        <ele>228.325</ele>
        <time>2015-06-20T15:19:02Z</time>
      </trkpt>
      <trkpt lat="45.73983" lon="5.50949">
        <ele>225.221</ele>
        <time>2015-06-20T15:19:10Z</time>
      </trkpt>
      <trkpt lat="45.73981" lon="5.50947">
        <ele>225.221</ele>
        <time>2015-06-20T15:19:11Z</time>
      </trkpt>
      <trkpt lat="45.73962" lon="5.50925">
        <ele>221.511</ele>
        <time>2015-06-20T15:19:24Z</time>
      </trkpt>
      <trkpt lat="45.73961" lon="5.50923">
        <ele>221.511</ele>
        <time>2015-06-20T15:19:25Z</time>
      </trkpt>
      <trkpt lat="45.73951" lon="5.5091">
        <ele>218.29</ele>
        <time>2015-06-20T15:19:31Z</time>
      </trkpt>
      <trkpt lat="45.7395" lon="5.50908">
        <ele>218.29</ele>
        <time>2015-06-20T15:19:32Z</time>
      </trkpt>
      <trkpt lat="45.73947" lon="5.50902">
        <ele>217.875</ele>
        <time>2015-06-20T15:19:34Z</time>
      </trkpt>
      <trkpt lat="45.7394" lon="5.50898">
        <ele>216.115</ele>
        <time>2015-06-20T15:19:38Z</time>
      </trkpt>
      <trkpt lat="45.7393" lon="5.50883">
        <ele>213.336</ele>
        <time>2015-06-20T15:19:45Z</time>
      </trkpt>
      <trkpt lat="45.73924" lon="5.50874">
        <ele>212.091</ele>
        <time>2015-06-20T15:19:48Z</time>
      </trkpt>
      <trkpt lat="45.73925" lon="5.50867">
        <ele>211.65</ele>
        <time>2015-06-20T15:19:50Z</time>
      </trkpt>
      <trkpt lat="45.73922" lon="5.50837">
        <ele>211.185</ele>
        <time>2015-06-20T15:19:58Z</time>
      </trkpt>
      <trkpt lat="45.73919" lon="5.50802">
        <ele>209.356</ele>
        <time>2015-06-20T15:20:06Z</time>
      </trkpt>
      <trkpt lat="45.73919" lon="5.50795">
        <ele>208.68</ele>
        <time>2015-06-20T15:20:08Z</time>
      </trkpt>
      <trkpt lat="45.73933" lon="5.5075">
        <ele>207.863</ele>
        <time>2015-06-20T15:20:19Z</time>
      </trkpt>
      <trkpt lat="45.73937" lon="5.50736">
        <ele>208.463</ele>
        <time>2015-06-20T15:20:22Z</time>
      </trkpt>
      <trkpt lat="45.73941" lon="5.50697">
        <ele>209.052</ele>
        <time>2015-06-20T15:20:31Z</time>
      </trkpt>
      <trkpt lat="45.73957" lon="5.50628">
        <ele>208.204</ele>
        <time>2015-06-20T15:20:46Z</time>
      </trkpt>
      <trkpt lat="45.73972" lon="5.50572">
        <ele>208.455</ele>
        <time>2015-06-20T15:20:59Z</time>
      </trkpt>
      <trkpt lat="45.7398" lon="5.5055">
        <ele>208.18</ele>
        <time>2015-06-20T15:21:10Z</time>
      </trkpt>
      <trkpt lat="45.73982" lon="5.50537">
        <ele>205.234</ele>
        <time>2015-06-20T15:21:19Z</time>
      </trkpt>
      <trkpt lat="45.73981" lon="5.50533">
        <ele>204.529</ele>
        <time>2015-06-20T15:21:21Z</time>
      </trkpt>
      <trkpt lat="45.73978" lon="5.50527">
        <ele>203.895</ele>
        <time>2015-06-20T15:21:25Z</time>
      </trkpt>
      <trkpt lat="45.73975" lon="5.50526">
        <ele>202.869</ele>
        <time>2015-06-20T15:21:27Z</time>
      </trkpt>
      <trkpt lat="45.7397" lon="5.50525">
        <ele>200.827</ele>
        <time>2015-06-20T15:21:30Z</time>
      </trkpt>
      <trkpt lat="45.73965" lon="5.50521">
        <ele>198.665</ele>
        <time>2015-06-20T15:21:38Z</time>
      </trkpt>
      <trkpt lat="45.73963" lon="5.50514">
        <ele>198.626</ele>
        <time>2015-06-20T15:21:55Z</time>
      </trkpt>
      <trkpt lat="45.73965" lon="5.50501">
        <ele>197.688</ele>
        <time>2015-06-20T15:24:35Z</time>
      </trkpt>
      <trkpt lat="45.73972" lon="5.50483">
        <ele>197.807</ele>
        <time>2015-06-20T15:24:39Z</time>
      </trkpt>
      <trkpt lat="45.73986" lon="5.50444">
        <ele>198.784</ele>
        <time>2015-06-20T15:24:47Z</time>
      </trkpt>
      <trkpt lat="45.73999" lon="5.50418">
        <ele>199.284</ele>
        <time>2015-06-20T15:24:54Z</time>
      </trkpt>
      <trkpt lat="45.74008" lon="5.50406">
        <ele>198.605</ele>
        <time>2015-06-20T15:24:58Z</time>
      </trkpt>
      <trkpt lat="45.74022" lon="5.50366">
        <ele>197.762</ele>
        <time>2015-06-20T15:25:06Z</time>
      </trkpt>
      <trkpt lat="45.74054" lon="5.50311">
        <ele>196.581</ele>
        <time>2015-06-20T15:25:19Z</time>
      </trkpt>
      <trkpt lat="45.74097" lon="5.50259">
        <ele>197.624</ele>
        <time>2015-06-20T15:25:33Z</time>
      </trkpt>
      <trkpt lat="45.74129" lon="5.50224">
        <ele>198.658</ele>
        <time>2015-06-20T15:25:45Z</time>
      </trkpt>
      <trkpt lat="45.74154" lon="5.50188">
        <ele>197.897</ele>
        <time>2015-06-20T15:25:55Z</time>
      </trkpt>
      <trkpt lat="45.74179" lon="5.50139">
        <ele>197.162</ele>
        <time>2015-06-20T15:26:06Z</time>
      </trkpt>
      <trkpt lat="45.74184" lon="5.50131">
        <ele>196.478</ele>
        <time>2015-06-20T15:26:08Z</time>
      </trkpt>
      <trkpt lat="45.74219" lon="5.50103">
        <ele>197.878</ele>
        <time>2015-06-20T15:26:20Z</time>
      </trkpt>
      <trkpt lat="45.7426" lon="5.50056">
        <ele>197.756</ele>
        <time>2015-06-20T15:26:35Z</time>
      </trkpt>
      <trkpt lat="45.74265" lon="5.50048">
        <ele>196.472</ele>
        <time>2015-06-20T15:26:37Z</time>
      </trkpt>
      <trkpt lat="45.743" lon="5.50012">
        <ele>195.833</ele>
        <time>2015-06-20T15:26:50Z</time>
      </trkpt>
      <trkpt lat="45.74309" lon="5.5001">
        <ele>196.499</ele>
        <time>2015-06-20T15:26:53Z</time>
      </trkpt>
      <trkpt lat="45.74317" lon="5.50003">
        <ele>196.43</ele>
        <time>2015-06-20T15:26:56Z</time>
      </trkpt>
      <trkpt lat="45.74325" lon="5.50002">
        <ele>196.142</ele>
        <time>2015-06-20T15:27:02Z</time>
      </trkpt>
      <trkpt lat="45.74361" lon="5.49962">
        <ele>197.048</ele>
        <time>2015-06-20T15:27:18Z</time>
      </trkpt>
      <trkpt lat="45.74411" lon="5.49939">
        <ele>196.242</ele>
        <time>2015-06-20T15:27:32Z</time>
      </trkpt>
      <trkpt lat="45.7444" lon="5.49929">
        <ele>196.398</ele>
        <time>2015-06-20T15:27:43Z</time>
      </trkpt>
      <trkpt lat="45.74444" lon="5.49928">
        <ele>196.681</ele>
        <time>2015-06-20T15:27:44Z</time>
      </trkpt>
      <trkpt lat="45.74457" lon="5.49913">
        <ele>196.351</ele>
        <time>2015-06-20T15:27:49Z</time>
      </trkpt>
      <trkpt lat="45.74501" lon="5.49883">
        <ele>196.018</ele>
        <time>2015-06-20T15:28:03Z</time>
      </trkpt>
      <trkpt lat="45.74535" lon="5.49857">
        <ele>196.731</ele>
        <time>2015-06-20T15:28:14Z</time>
      </trkpt>
      <trkpt lat="45.74572" lon="5.4982">
        <ele>196.752</ele>
        <time>2015-06-20T15:28:27Z</time>
      </trkpt>
      <trkpt lat="45.74608" lon="5.49781">
        <ele>197.099</ele>
        <time>2015-06-20T15:28:40Z</time>
      </trkpt>
      <trkpt lat="45.74614" lon="5.49734">
        <ele>197.986</ele>
        <time>2015-06-20T15:28:51Z</time>
      </trkpt>
      <trkpt lat="45.74628" lon="5.49671">
        <ele>197.175</ele>
        <time>2015-06-20T15:29:05Z</time>
      </trkpt>
      <trkpt lat="45.7463" lon="5.49661">
        <ele>196.583</ele>
        <time>2015-06-20T15:29:07Z</time>
      </trkpt>
      <trkpt lat="45.74644" lon="5.49646">
        <ele>196.652</ele>
        <time>2015-06-20T15:29:14Z</time>
      </trkpt>
      <trkpt lat="45.74681" lon="5.49647">
        <ele>196.66</ele>
        <time>2015-06-20T15:29:25Z</time>
      </trkpt>
      <trkpt lat="45.74703" lon="5.49626">
        <ele>196.472</ele>
        <time>2015-06-20T15:29:32Z</time>
      </trkpt>
      <trkpt lat="45.74739" lon="5.49559">
        <ele>197.133</ele>
        <time>2015-06-20T15:29:48Z</time>
      </trkpt>
      <trkpt lat="45.74779" lon="5.49507">
        <ele>196.945</ele>
        <time>2015-06-20T15:30:02Z</time>
      </trkpt>
      <trkpt lat="45.74801" lon="5.4947">
        <ele>197.331</ele>
        <time>2015-06-20T15:30:11Z</time>
      </trkpt>
      <trkpt lat="45.74846" lon="5.49404">
        <ele>197.463</ele>
        <time>2015-06-20T15:30:28Z</time>
      </trkpt>
      <trkpt lat="45.74884" lon="5.49353">
        <ele>197.199</ele>
        <time>2015-06-20T15:30:42Z</time>
      </trkpt>
      <trkpt lat="45.74919" lon="5.49304">
        <ele>197.508</ele>
        <time>2015-06-20T15:30:56Z</time>
      </trkpt>
      <trkpt lat="45.74969" lon="5.49261">
        <ele>196.729</ele>
        <time>2015-06-20T15:31:11Z</time>
      </trkpt>
      <trkpt lat="45.7502" lon="5.49224">
        <ele>197.059</ele>
        <time>2015-06-20T15:31:29Z</time>
      </trkpt>
      <trkpt lat="45.75077" lon="5.49186">
        <ele>196.784</ele>
        <time>2015-06-20T15:31:48Z</time>
      </trkpt>
      <trkpt lat="45.75115" lon="5.49159">
        <ele>197.178</ele>
        <time>2015-06-20T15:32:05Z</time>
      </trkpt>
      <trkpt lat="45.75129" lon="5.49139">
        <ele>194.144</ele>
        <time>2015-06-20T15:35:30Z</time>
      </trkpt>
      <trkpt lat="45.75131" lon="5.49135">
        <ele>198.465</ele>
        <time>2015-06-20T15:35:32Z</time>
      </trkpt>
      <trkpt lat="45.75144" lon="5.49109">
        <ele>196.89</ele>
        <time>2015-06-20T15:35:40Z</time>
      </trkpt>
      <trkpt lat="45.75189" lon="5.49038">
        <ele>196.06</ele>
        <time>2015-06-20T15:35:58Z</time>
      </trkpt>
      <trkpt lat="45.75233" lon="5.4897">
        <ele>194.89</ele>
        <time>2015-06-20T15:36:16Z</time>
      </trkpt>
      <trkpt lat="45.75236" lon="5.48967">
        <ele>194.89</ele>
        <time>2015-06-20T15:36:17Z</time>
      </trkpt>
      <trkpt lat="45.75276" lon="5.48903">
        <ele>195.222</ele>
        <time>2015-06-20T15:36:35Z</time>
      </trkpt>
      <trkpt lat="45.7532" lon="5.48832">
        <ele>194.604</ele>
        <time>2015-06-20T15:36:54Z</time>
      </trkpt>
      <trkpt lat="45.75357" lon="5.4877">
        <ele>195.941</ele>
        <time>2015-06-20T15:37:10Z</time>
      </trkpt>
      <trkpt lat="45.75398" lon="5.48697">
        <ele>193.455</ele>
        <time>2015-06-20T15:37:28Z</time>
      </trkpt>
      <trkpt lat="45.7543" lon="5.48634">
        <ele>193.516</ele>
        <time>2015-06-20T15:37:45Z</time>
      </trkpt>
      <trkpt lat="45.75467" lon="5.48564">
        <ele>194.028</ele>
        <time>2015-06-20T15:38:03Z</time>
      </trkpt>
      <trkpt lat="45.75489" lon="5.48523">
        <ele>194.506</ele>
        <time>2015-06-20T15:38:12Z</time>
      </trkpt>
      <trkpt lat="45.75497" lon="5.48511">
        <ele>192.971</ele>
        <time>2015-06-20T15:38:15Z</time>
      </trkpt>
      <trkpt lat="45.75539" lon="5.48454">
        <ele>193.238</ele>
        <time>2015-06-20T15:38:31Z</time>
      </trkpt>
      <trkpt lat="45.75545" lon="5.48446">
        <ele>191.824</ele>
        <time>2015-06-20T15:38:33Z</time>
      </trkpt>
      <trkpt lat="45.75552" lon="5.48434">
        <ele>193.383</ele>
        <time>2015-06-20T15:38:36Z</time>
      </trkpt>
      <trkpt lat="45.75584" lon="5.48384">
        <ele>194.028</ele>
        <time>2015-06-20T15:38:49Z</time>
      </trkpt>
      <trkpt lat="45.75636" lon="5.48318">
        <ele>193.193</ele>
        <time>2015-06-20T15:39:08Z</time>
      </trkpt>
      <trkpt lat="45.75713" lon="5.48247">
        <ele>193.574</ele>
        <time>2015-06-20T15:39:33Z</time>
      </trkpt>
      <trkpt lat="45.75792" lon="5.48195">
        <ele>194.253</ele>
        <time>2015-06-20T15:39:57Z</time>
      </trkpt>
      <trkpt lat="45.75861" lon="5.48152">
        <ele>193.724</ele>
        <time>2015-06-20T15:40:17Z</time>
      </trkpt>
      <trkpt lat="45.75914" lon="5.48112">
        <ele>193.769</ele>
        <time>2015-06-20T15:40:33Z</time>
      </trkpt>
      <trkpt lat="45.75938" lon="5.48092">
        <ele>193.238</ele>
        <time>2015-06-20T15:40:40Z</time>
      </trkpt>
      <trkpt lat="45.76022" lon="5.48015">
        <ele>193.494</ele>
        <time>2015-06-20T15:41:02Z</time>
      </trkpt>
      <trkpt lat="45.76101" lon="5.4794">
        <ele>195.008</ele>
        <time>2015-06-20T15:41:23Z</time>
      </trkpt>
      <trkpt lat="45.76163" lon="5.47884">
        <ele>194.868</ele>
        <time>2015-06-20T15:41:39Z</time>
      </trkpt>
      <trkpt lat="45.76247" lon="5.47813">
        <ele>194.295</ele>
        <time>2015-06-20T15:41:59Z</time>
      </trkpt>
      <trkpt lat="45.76274" lon="5.47788">
        <ele>194.837</ele>
        <time>2015-06-20T15:42:06Z</time>
      </trkpt>
      <trkpt lat="45.76329" lon="5.47737">
        <ele>194.771</ele>
        <time>2015-06-20T15:42:21Z</time>
      </trkpt>
      <trkpt lat="45.76342" lon="5.47723">
        <ele>195.825</ele>
        <time>2015-06-20T15:42:34Z</time>
      </trkpt>
      <trkpt lat="45.76339" lon="5.47721">
        <ele>194.824</ele>
        <time>2015-06-20T15:49:34Z</time>
      </trkpt>
      <trkpt lat="45.7635" lon="5.47712">
        <ele>193.867</ele>
        <time>2015-06-20T15:49:55Z</time>
      </trkpt>
      <trkpt lat="45.76362" lon="5.47698">
        <ele>193.648</ele>
        <time>2015-06-20T15:50:48Z</time>
      </trkpt>
      <trkpt lat="45.76399" lon="5.47648">
        <ele>192.406</ele>
        <time>2015-06-20T15:51:04Z</time>
      </trkpt>
      <trkpt lat="45.76447" lon="5.47579">
        <ele>192.329</ele>
        <time>2015-06-20T15:51:22Z</time>
      </trkpt>
      <trkpt lat="45.76452" lon="5.47571">
        <ele>193.991</ele>
        <time>2015-06-20T15:51:24Z</time>
      </trkpt>
      <trkpt lat="45.7649" lon="5.47517">
        <ele>192.797</ele>
        <time>2015-06-20T15:51:37Z</time>
      </trkpt>
      <trkpt lat="45.76527" lon="5.47468">
        <ele>193.333</ele>
        <time>2015-06-20T15:51:49Z</time>
      </trkpt>
      <trkpt lat="45.76608" lon="5.4738">
        <ele>194.065</ele>
        <time>2015-06-20T15:52:14Z</time>
      </trkpt>
      <trkpt lat="45.76678" lon="5.47327">
        <ele>194.02</ele>
        <time>2015-06-20T15:52:33Z</time>
      </trkpt>
      <trkpt lat="45.76754" lon="5.47273">
        <ele>194.335</ele>
        <time>2015-06-20T15:52:52Z</time>
      </trkpt>
      <trkpt lat="45.76802" lon="5.47232">
        <ele>193.624</ele>
        <time>2015-06-20T15:53:05Z</time>
      </trkpt>
      <trkpt lat="45.76823" lon="5.47212">
        <ele>194.596</ele>
        <time>2015-06-20T15:53:11Z</time>
      </trkpt>
      <trkpt lat="45.7683" lon="5.47204">
        <ele>192.554</ele>
        <time>2015-06-20T15:53:13Z</time>
      </trkpt>
      <trkpt lat="45.76881" lon="5.47155">
        <ele>193.885</ele>
        <time>2015-06-20T15:53:27Z</time>
      </trkpt>
      <trkpt lat="45.76898" lon="5.47136">
        <ele>192.44</ele>
        <time>2015-06-20T15:53:32Z</time>
      </trkpt>
      <trkpt lat="45.7697" lon="5.47056">
        <ele>194.026</ele>
        <time>2015-06-20T15:53:54Z</time>
      </trkpt>
      <trkpt lat="45.76987" lon="5.47036">
        <ele>192.704</ele>
        <time>2015-06-20T15:53:59Z</time>
      </trkpt>
      <trkpt lat="45.77068" lon="5.46967">
        <ele>191.893</ele>
        <time>2015-06-20T15:54:20Z</time>
      </trkpt>
      <trkpt lat="45.7715" lon="5.46907">
        <ele>192.9</ele>
        <time>2015-06-20T15:54:40Z</time>
      </trkpt>
      <trkpt lat="45.77238" lon="5.4683">
        <ele>192.596</ele>
        <time>2015-06-20T15:55:02Z</time>
      </trkpt>
      <trkpt lat="45.77281" lon="5.46784">
        <ele>193.608</ele>
        <time>2015-06-20T15:55:17Z</time>
      </trkpt>
      <trkpt lat="45.77281" lon="5.46776">
        <ele>195.476</ele>
        <time>2015-06-20T15:55:28Z</time>
      </trkpt>
      <trkpt lat="45.77287" lon="5.46775">
        <ele>194.713</ele>
        <time>2015-06-20T15:55:52Z</time>
      </trkpt>
      <trkpt lat="45.77318" lon="5.46753">
        <ele>192.847</ele>
        <time>2015-06-20T15:56:05Z</time>
      </trkpt>
      <trkpt lat="45.77362" lon="5.46715">
        <ele>194.388</ele>
        <time>2015-06-20T15:56:17Z</time>
      </trkpt>
      <trkpt lat="45.77373" lon="5.46703">
        <ele>193.701</ele>
        <time>2015-06-20T15:56:20Z</time>
      </trkpt>
      <trkpt lat="45.77469" lon="5.46637">
        <ele>192.414</ele>
        <time>2015-06-20T15:56:42Z</time>
      </trkpt>
      <trkpt lat="45.77536" lon="5.46588">
        <ele>192.07</ele>
        <time>2015-06-20T15:56:58Z</time>
      </trkpt>
      <trkpt lat="45.77545" lon="5.46583">
        <ele>190.081</ele>
        <time>2015-06-20T15:57:00Z</time>
      </trkpt>
      <trkpt lat="45.77553" lon="5.46577">
        <ele>191.84</ele>
        <time>2015-06-20T15:57:02Z</time>
      </trkpt>
      <trkpt lat="45.7762" lon="5.46526">
        <ele>194.781</ele>
        <time>2015-06-20T15:57:19Z</time>
      </trkpt>
      <trkpt lat="45.77661" lon="5.4649">
        <ele>192.527</ele>
        <time>2015-06-20T15:57:29Z</time>
      </trkpt>
      <trkpt lat="45.77724" lon="5.46405">
        <ele>191.962</ele>
        <time>2015-06-20T15:57:46Z</time>
      </trkpt>
      <trkpt lat="45.77811" lon="5.46321">
        <ele>191.507</ele>
        <time>2015-06-20T15:58:05Z</time>
      </trkpt>
      <trkpt lat="45.77882" lon="5.46224">
        <ele>193.534</ele>
        <time>2015-06-20T15:58:23Z</time>
      </trkpt>
      <trkpt lat="45.77894" lon="5.4621">
        <ele>191.996</ele>
        <time>2015-06-20T15:58:26Z</time>
      </trkpt>
      <trkpt lat="45.77979" lon="5.46123">
        <ele>192.414</ele>
        <time>2015-06-20T15:58:46Z</time>
      </trkpt>
      <trkpt lat="45.77983" lon="5.46118">
        <ele>192.414</ele>
        <time>2015-06-20T15:58:47Z</time>
      </trkpt>
      <trkpt lat="45.78009" lon="5.46089">
        <ele>193.315</ele>
        <time>2015-06-20T15:58:53Z</time>
      </trkpt>
      <trkpt lat="45.78033" lon="5.4606">
        <ele>190.104</ele>
        <time>2015-06-20T15:58:59Z</time>
      </trkpt>
      <trkpt lat="45.78049" lon="5.46043">
        <ele>190.514</ele>
        <time>2015-06-20T15:59:03Z</time>
      </trkpt>
      <trkpt lat="45.78057" lon="5.46034">
        <ele>192.11</ele>
        <time>2015-06-20T15:59:05Z</time>
      </trkpt>
      <trkpt lat="45.78088" lon="5.46">
        <ele>194.485</ele>
        <time>2015-06-20T15:59:14Z</time>
      </trkpt>
      <trkpt lat="45.78137" lon="5.45921">
        <ele>194.905</ele>
        <time>2015-06-20T15:59:32Z</time>
      </trkpt>
      <trkpt lat="45.78193" lon="5.45826">
        <ele>195.326</ele>
        <time>2015-06-20T15:59:51Z</time>
      </trkpt>
      <trkpt lat="45.7821" lon="5.45795">
        <ele>195.093</ele>
        <time>2015-06-20T15:59:57Z</time>
      </trkpt>
      <trkpt lat="45.78246" lon="5.45734">
        <ele>194.892</ele>
        <time>2015-06-20T16:00:10Z</time>
      </trkpt>
      <trkpt lat="45.78273" lon="5.45663">
        <ele>194.62</ele>
        <time>2015-06-20T16:00:24Z</time>
      </trkpt>
      <trkpt lat="45.78282" lon="5.4564">
        <ele>194.771</ele>
        <time>2015-06-20T16:00:28Z</time>
      </trkpt>
      <trkpt lat="45.783" lon="5.45578">
        <ele>194.454</ele>
        <time>2015-06-20T16:00:38Z</time>
      </trkpt>
      <trkpt lat="45.78326" lon="5.45478">
        <ele>194.868</ele>
        <time>2015-06-20T16:00:56Z</time>
      </trkpt>
      <trkpt lat="45.78342" lon="5.45411">
        <ele>194.358</ele>
        <time>2015-06-20T16:01:11Z</time>
      </trkpt>
      <trkpt lat="45.78345" lon="5.45401">
        <ele>195.122</ele>
        <time>2015-06-20T16:01:13Z</time>
      </trkpt>
      <trkpt lat="45.78381" lon="5.45305">
        <ele>194.398</ele>
        <time>2015-06-20T16:01:30Z</time>
      </trkpt>
      <trkpt lat="45.78411" lon="5.45217">
        <ele>195.31</ele>
        <time>2015-06-20T16:01:48Z</time>
      </trkpt>
      <trkpt lat="45.78411" lon="5.4521">
        <ele>195.764</ele>
        <time>2015-06-20T16:01:50Z</time>
      </trkpt>
      <trkpt lat="45.78416" lon="5.45206">
        <ele>196.134</ele>
        <time>2015-06-20T16:01:54Z</time>
      </trkpt>
      <trkpt lat="45.78437" lon="5.45226">
        <ele>196.816</ele>
        <time>2015-06-20T16:02:06Z</time>
      </trkpt>
      <trkpt lat="45.78476" lon="5.45249">
        <ele>196.752</ele>
        <time>2015-06-20T16:02:22Z</time>
      </trkpt>
      <trkpt lat="45.78507" lon="5.45264">
        <ele>197.487</ele>
        <time>2015-06-20T16:02:38Z</time>
      </trkpt>
      <trkpt lat="45.78505" lon="5.45252">
        <ele>198.399</ele>
        <time>2015-06-20T16:02:43Z</time>
      </trkpt>
      <trkpt lat="45.78457" lon="5.45218">
        <ele>202.425</ele>
        <time>2015-06-20T16:03:00Z</time>
      </trkpt>
      <trkpt lat="45.784" lon="5.45178">
        <ele>205.853</ele>
        <time>2015-06-20T16:03:16Z</time>
      </trkpt>
      <trkpt lat="45.78395" lon="5.45176">
        <ele>205.858</ele>
        <time>2015-06-20T16:03:17Z</time>
      </trkpt>
      <trkpt lat="45.78319" lon="5.45123">
        <ele>204.941</ele>
        <time>2015-06-20T16:03:34Z</time>
      </trkpt>
      <trkpt lat="45.78306" lon="5.45114">
        <ele>203.72</ele>
        <time>2015-06-20T16:03:36Z</time>
      </trkpt>
      <trkpt lat="45.78278" lon="5.45094">
        <ele>200.61</ele>
        <time>2015-06-20T16:03:40Z</time>
      </trkpt>
      <trkpt lat="45.78271" lon="5.45088">
        <ele>200.61</ele>
        <time>2015-06-20T16:03:41Z</time>
      </trkpt>
      <trkpt lat="45.78168" lon="5.45006">
        <ele>202.933</ele>
        <time>2015-06-20T16:03:58Z</time>
      </trkpt>
      <trkpt lat="45.7813" lon="5.44955">
        <ele>206.762</ele>
        <time>2015-06-20T16:04:10Z</time>
      </trkpt>
      <trkpt lat="45.78127" lon="5.44951">
        <ele>206.762</ele>
        <time>2015-06-20T16:04:11Z</time>
      </trkpt>
      <trkpt lat="45.78095" lon="5.44892">
        <ele>209.544</ele>
        <time>2015-06-20T16:04:27Z</time>
      </trkpt>
      <trkpt lat="45.78101" lon="5.44876">
        <ele>208.767</ele>
        <time>2015-06-20T16:04:32Z</time>
      </trkpt>
      <trkpt lat="45.78117" lon="5.44864">
        <ele>206.503</ele>
        <time>2015-06-20T16:04:38Z</time>
      </trkpt>
      <trkpt lat="45.78139" lon="5.44847">
        <ele>204.727</ele>
        <time>2015-06-20T16:04:46Z</time>
      </trkpt>
      <trkpt lat="45.78145" lon="5.44843">
        <ele>206.532</ele>
        <time>2015-06-20T16:04:48Z</time>
      </trkpt>
      <trkpt lat="45.78164" lon="5.44825">
        <ele>206.611</ele>
        <time>2015-06-20T16:04:54Z</time>
      </trkpt>
      <trkpt lat="45.78192" lon="5.44786">
        <ele>204.896</ele>
        <time>2015-06-20T16:05:02Z</time>
      </trkpt>
      <trkpt lat="45.78203" lon="5.44771">
        <ele>204.727</ele>
        <time>2015-06-20T16:05:05Z</time>
      </trkpt>
      <trkpt lat="45.78228" lon="5.44753">
        <ele>205.805</ele>
        <time>2015-06-20T16:05:11Z</time>
      </trkpt>
      <trkpt lat="45.78242" lon="5.44754">
        <ele>205.152</ele>
        <time>2015-06-20T16:05:14Z</time>
      </trkpt>
      <trkpt lat="45.78334" lon="5.44788">
        <ele>207.686</ele>
        <time>2015-06-20T16:05:35Z</time>
      </trkpt>
      <trkpt lat="45.78355" lon="5.44789">
        <ele>207.985</ele>
        <time>2015-06-20T16:05:40Z</time>
      </trkpt>
      <trkpt lat="45.78433" lon="5.44757">
        <ele>207.234</ele>
        <time>2015-06-20T16:05:58Z</time>
      </trkpt>
      <trkpt lat="45.78484" lon="5.4472">
        <ele>207.147</ele>
        <time>2015-06-20T16:06:09Z</time>
      </trkpt>
      <trkpt lat="45.78509" lon="5.44696">
        <ele>204.946</ele>
        <time>2015-06-20T16:06:14Z</time>
      </trkpt>
      <trkpt lat="45.78533" lon="5.44665">
        <ele>203.255</ele>
        <time>2015-06-20T16:06:18Z</time>
      </trkpt>
      <trkpt lat="45.78545" lon="5.44647">
        <ele>201.118</ele>
        <time>2015-06-20T16:06:20Z</time>
      </trkpt>
      <trkpt lat="45.78558" lon="5.44629">
        <ele>197.786</ele>
        <time>2015-06-20T16:06:22Z</time>
      </trkpt>
      <trkpt lat="45.78565" lon="5.4462">
        <ele>197.786</ele>
        <time>2015-06-20T16:06:23Z</time>
      </trkpt>
      <trkpt lat="45.78578" lon="5.446">
        <ele>195.54</ele>
        <time>2015-06-20T16:06:25Z</time>
      </trkpt>
      <trkpt lat="45.78584" lon="5.4459">
        <ele>192.43</ele>
        <time>2015-06-20T16:06:26Z</time>
      </trkpt>
      <trkpt lat="45.78618" lon="5.44566">
        <ele>190.45</ele>
        <time>2015-06-20T16:06:30Z</time>
      </trkpt>
      <trkpt lat="45.78627" lon="5.4456">
        <ele>190.622</ele>
        <time>2015-06-20T16:06:31Z</time>
      </trkpt>
      <trkpt lat="45.78647" lon="5.44536">
        <ele>191.293</ele>
        <time>2015-06-20T16:06:34Z</time>
      </trkpt>
      <trkpt lat="45.78668" lon="5.44502">
        <ele>193.809</ele>
        <time>2015-06-20T16:06:39Z</time>
      </trkpt>
      <trkpt lat="45.78684" lon="5.4447">
        <ele>197.524</ele>
        <time>2015-06-20T16:06:45Z</time>
      </trkpt>
      <trkpt lat="45.78686" lon="5.44466">
        <ele>197.524</ele>
        <time>2015-06-20T16:06:46Z</time>
      </trkpt>
      <trkpt lat="45.78694" lon="5.44419">
        <ele>201.704</ele>
        <time>2015-06-20T16:06:56Z</time>
      </trkpt>
      <trkpt lat="45.78693" lon="5.44393">
        <ele>203.247</ele>
        <time>2015-06-20T16:07:02Z</time>
      </trkpt>
      <trkpt lat="45.78692" lon="5.44377">
        <ele>205.306</ele>
        <time>2015-06-20T16:07:07Z</time>
      </trkpt>
      <trkpt lat="45.78715" lon="5.44351">
        <ele>206.725</ele>
        <time>2015-06-20T16:07:20Z</time>
      </trkpt>
      <trkpt lat="45.78717" lon="5.44349">
        <ele>206.725</ele>
        <time>2015-06-20T16:07:21Z</time>
      </trkpt>
      <trkpt lat="45.7872" lon="5.44344">
        <ele>207.042</ele>
        <time>2015-06-20T16:07:35Z</time>
      </trkpt>
    </trkseg>
  </trk>
</gpx>